Time,TemperatureF,DewpointF,PressureIn,WindDirection,WindDirectionDegrees,WindSpeedMPH,WindSpeedGustMPH,Humidity,HourlyPrecipIn,Conditions,Clouds,dailyrainin,SoftwareType,DateUTC
2013-07-03 00:00:00,72.8,69.0,30.19,SW,234,4.0,8.0,88,0.00,,,0.00,Wunderground v.1.15,2013-07-03 04:00:00,
2013-07-03 00:04:00,72.8,69.0,30.19,SW,229,2.0,3.0,88,0.00,,,0.00,Wunderground v.1.15,2013-07-03 04:04:00,
2013-07-03 00:06:00,72.8,69.0,30.19,SW,229,0.0,3.0,88,0.00,,,0.00,Wunderground v.1.15,2013-07-03 04:06:00,
2013-07-03 00:07:00,72.8,69.0,30.19,SSW,205,2.0,3.0,88,0.00,,,0.00,Wunderground v.1.15,2013-07-03 04:07:00,
2013-07-03 00:09:00,72.8,69.0,30.19,WSW,244,2.0,7.0,88,0.00,,,0.00,Wunderground v.1.15,2013-07-03 04:09:00,
2013-07-03 00:11:00,72.8,69.0,30.19,SSW,205,0.0,7.0,88,0.00,,,0.00,Wunderground v.1.15,2013-07-03 04:11:00,
2013-07-03 00:12:00,72.8,69.0,30.19,SW,223,4.0,7.0,88,0.00,,,0.00,Wunderground v.1.15,2013-07-03 04:12:00,
2013-07-03 00:13:00,72.8,69.0,30.19,SW,223,1.0,7.0,88,0.00,,,0.00,Wunderground v.1.15,2013-07-03 04:13:00,
2013-07-03 00:15:00,72.8,69.0,30.19,SW,234,1.0,3.0,88,0.00,,,0.00,Wunderground v.1.15,2013-07-03 04:15:00,
2013-07-03 00:16:00,72.8,69.0,30.19,South,186,0.0,6.0,88,0.00,,,0.00,Wunderground v.1.15,2013-07-03 04:16:00,
2013-07-03 00:17:00,72.4,68.6,30.19,WSW,238,1.0,3.0,88,0.00,,,0.00,Wunderground v.1.15,2013-07-03 04:17:00,
2013-07-03 00:18:00,72.8,69.0,30.19,SW,232,2.0,6.0,88,0.00,,,0.00,Wunderground v.1.15,2013-07-03 04:18:00,
2013-07-03 00:19:00,72.4,68.6,30.19,WSW,244,2.0,3.0,88,0.00,,,0.00,Wunderground v.1.15,2013-07-03 04:19:00,
2013-07-03 00:20:00,72.8,69.0,30.19,SW,221,2.0,6.0,88,0.00,,,0.00,Wunderground v.1.15,2013-07-03 04:20:00,
2013-07-03 00:21:00,72.8,69.0,30.19,SSW,207,1.0,6.0,88,0.00,,,0.00,Wunderground v.1.15,2013-07-03 04:21:00,
2013-07-03 00:22:00,72.3,68.5,30.19,North,5,0.0,2.0,88,0.00,,,0.00,Wunderground v.1.15,2013-07-03 04:22:00,
2013-07-03 00:23:00,72.7,68.9,30.19,SSW,204,7.0,9.0,88,0.00,,,0.00,Wunderground v.1.15,2013-07-03 04:23:00,
2013-07-03 00:24:00,72.7,68.9,30.19,SW,224,4.0,7.0,88,0.00,,,0.00,Wunderground v.1.15,2013-07-03 04:24:00,
2013-07-03 00:25:00,72.7,68.9,30.19,SSW,198,3.0,7.0,88,0.00,,,0.00,Wunderground v.1.15,2013-07-03 04:25:00,
2013-07-03 00:27:00,72.7,68.9,30.19,SSW,198,1.0,7.0,88,0.00,,,0.00,Wunderground v.1.15,2013-07-03 04:27:00,
2013-07-03 00:28:00,72.3,68.5,30.19,North,5,0.0,2.0,88,0.00,,,0.00,Wunderground v.1.15,2013-07-03 04:28:00,
2013-07-03 00:29:00,72.6,68.8,30.19,SSW,199,2.0,7.0,88,0.00,,,0.00,Wunderground v.1.15,2013-07-03 04:29:00,
2013-07-03 00:30:00,72.3,68.5,30.19,North,5,0.0,1.0,88,0.00,,,0.00,Wunderground v.1.15,2013-07-03 04:30:00,
2013-07-03 00:31:00,72.6,68.8,30.19,SW,225,0.0,7.0,88,0.00,,,0.00,Wunderground v.1.15,2013-07-03 04:31:00,
2013-07-03 00:32:00,72.2,68.4,30.19,North,5,1.0,1.0,88,0.00,,,0.00,Wunderground v.1.15,2013-07-03 04:32:00,
2013-07-03 00:33:00,72.2,68.4,30.19,North,5,0.0,1.0,88,0.00,,,0.00,Wunderground v.1.15,2013-07-03 04:33:00,
2013-07-03 00:34:00,72.2,68.4,30.19,North,5,0.0,1.0,88,0.00,,,0.00,Wunderground v.1.15,2013-07-03 04:34:00,
2013-07-03 00:36:00,72.2,68.4,30.19,North,5,0.0,1.0,88,0.00,,,0.00,Wunderground v.1.15,2013-07-03 04:36:00,
2013-07-03 00:37:00,72.5,68.7,30.19,South,175,1.0,3.0,88,0.00,,,0.00,Wunderground v.1.15,2013-07-03 04:37:00,
2013-07-03 00:38:00,72.2,68.4,30.19,North,5,0.0,1.0,88,0.00,,,0.00,Wunderground v.1.15,2013-07-03 04:38:00,
2013-07-03 00:39:00,72.2,68.4,30.19,North,5,1.0,1.0,88,0.00,,,0.00,Wunderground v.1.15,2013-07-03 04:39:00,
2013-07-03 00:41:00,72.1,68.3,30.19,North,5,0.0,0.0,88,0.00,,,0.00,Wunderground v.1.15,2013-07-03 04:41:00,
2013-07-03 00:42:00,72.0,68.2,30.19,North,5,0.0,0.0,88,0.00,,,0.00,Wunderground v.1.15,2013-07-03 04:42:00,
2013-07-03 00:43:00,72.4,69.0,30.19,WSW,245,2.0,2.0,89,0.00,,,0.00,Wunderground v.1.15,2013-07-03 04:43:00,
2013-07-03 00:44:00,71.9,68.5,30.20,NE,41,2.0,2.0,89,0.00,,,0.00,Wunderground v.1.15,2013-07-03 04:44:00,
2013-07-03 00:46:00,71.2,67.5,30.19,ENE,75,4.0,4.0,88,0.00,,,0.00,Wunderground v.1.15,2013-07-03 04:46:00,
2013-07-03 00:47:00,70.9,66.8,30.19,East,82,2.0,4.0,87,0.00,,,0.00,Wunderground v.1.15,2013-07-03 04:47:00,
2013-07-03 00:48:00,72.3,68.5,30.19,North,5,0.0,2.0,88,0.00,,,0.00,Wunderground v.1.15,2013-07-03 04:48:00,
2013-07-03 00:49:00,70.3,66.2,30.20,East,82,0.0,4.0,87,0.00,,,0.00,Wunderground v.1.15,2013-07-03 04:49:00,
2013-07-03 00:50:00,70.1,66.0,30.20,East,82,1.0,1.0,87,0.00,,,0.00,Wunderground v.1.15,2013-07-03 04:50:00,
2013-07-03 00:51:00,69.9,65.9,30.20,East,82,0.0,1.0,87,0.00,,,0.00,Wunderground v.1.15,2013-07-03 04:51:00,
2013-07-03 00:53:00,69.6,65.6,30.20,East,82,0.0,1.0,87,0.00,,,0.00,Wunderground v.1.15,2013-07-03 04:53:00,
2013-07-03 00:54:00,69.5,65.5,30.20,East,84,3.0,3.0,87,0.00,,,0.00,Wunderground v.1.15,2013-07-03 04:54:00,
2013-07-03 00:56:00,69.0,65.0,30.20,ENE,72,3.0,3.0,87,0.00,,,0.00,Wunderground v.1.15,2013-07-03 04:56:00,
2013-07-03 00:57:00,68.8,64.8,30.20,ENE,72,1.0,3.0,87,0.00,,,0.00,Wunderground v.1.15,2013-07-03 04:57:00,
2013-07-03 00:58:00,72.2,68.4,30.19,North,5,0.0,1.0,88,0.00,,,0.00,Wunderground v.1.15,2013-07-03 04:58:00,
2013-07-03 01:02:00,68.2,64.5,30.19,ENE,72,3.0,3.0,88,0.00,,,0.00,Wunderground v.1.15,2013-07-03 05:02:00,
2013-07-03 01:03:00,68.1,64.4,30.19,ENE,72,3.0,3.0,88,0.00,,,0.00,Wunderground v.1.15,2013-07-03 05:03:00,
2013-07-03 01:04:00,67.9,64.2,30.19,ENE,72,0.0,3.0,88,0.00,,,0.00,Wunderground v.1.15,2013-07-03 05:04:00,
2013-07-03 01:05:00,67.7,64.0,30.20,ENE,71,2.0,3.0,88,0.00,,,0.00,Wunderground v.1.15,2013-07-03 05:05:00,
2013-07-03 01:06:00,72.0,68.2,30.19,North,5,0.0,0.0,88,0.00,,,0.00,Wunderground v.1.15,2013-07-03 05:06:00,
2013-07-03 01:07:00,67.6,63.9,30.19,ENE,71,1.0,3.0,88,0.00,,,0.00,Wunderground v.1.15,2013-07-03 05:07:00,
2013-07-03 01:08:00,67.5,63.8,30.19,ENE,71,0.0,3.0,88,0.00,,,0.00,Wunderground v.1.15,2013-07-03 05:08:00,
2013-07-03 01:09:00,67.4,63.7,30.19,ENE,71,1.0,3.0,88,0.00,,,0.00,Wunderground v.1.15,2013-07-03 05:09:00,
2013-07-03 01:12:00,67.3,63.6,30.19,ENE,71,0.0,1.0,88,0.00,,,0.00,Wunderground v.1.15,2013-07-03 05:12:00,
2013-07-03 01:13:00,67.3,63.6,30.19,ENE,71,1.0,1.0,88,0.00,,,0.00,Wunderground v.1.15,2013-07-03 05:13:00,
2013-07-03 01:14:00,67.2,63.5,30.19,ENE,71,0.0,1.0,88,0.00,,,0.00,Wunderground v.1.15,2013-07-03 05:14:00,
2013-07-03 01:15:00,69.7,65.7,30.20,East,82,0.0,1.0,87,0.00,,,0.00,Wunderground v.1.15,2013-07-03 05:15:00,
2013-07-03 01:16:00,67.2,63.5,30.19,ENE,71,1.0,2.0,88,0.00,,,0.00,Wunderground v.1.15,2013-07-03 05:16:00,
2013-07-03 01:17:00,67.1,63.4,30.19,ENE,71,0.0,2.0,88,0.00,,,0.00,Wunderground v.1.15,2013-07-03 05:17:00,
2013-07-03 01:19:00,67.1,63.4,30.19,ENE,71,0.0,2.0,88,0.00,,,0.00,Wunderground v.1.15,2013-07-03 05:19:00,
2013-07-03 01:20:00,67.0,63.3,30.19,ENE,71,0.0,0.0,88,0.00,,,0.00,Wunderground v.1.15,2013-07-03 05:20:00,
2013-07-03 01:21:00,67.0,63.3,30.19,ENE,71,2.0,2.0,88,0.00,,,0.00,Wunderground v.1.15,2013-07-03 05:21:00,
2013-07-03 01:22:00,68.5,64.8,30.20,ENE,72,1.0,3.0,88,0.00,,,0.00,Wunderground v.1.15,2013-07-03 05:22:00,
2013-07-03 01:23:00,66.9,63.2,30.19,ENE,71,0.0,2.0,88,0.00,,,0.00,Wunderground v.1.15,2013-07-03 05:23:00,
2013-07-03 01:24:00,66.8,63.1,30.19,ENE,71,0.0,2.0,88,0.00,,,0.00,Wunderground v.1.15,2013-07-03 05:24:00,
2013-07-03 01:25:00,66.8,63.1,30.19,ENE,71,0.0,2.0,88,0.00,,,0.00,Wunderground v.1.15,2013-07-03 05:25:00,
2013-07-03 01:26:00,66.8,63.1,30.19,ENE,71,1.0,2.0,88,0.00,,,0.00,Wunderground v.1.15,2013-07-03 05:26:00,
2013-07-03 01:27:00,66.7,63.0,30.19,ENE,71,0.0,2.0,88,0.00,,,0.00,Wunderground v.1.15,2013-07-03 05:27:00,
2013-07-03 01:28:00,66.7,63.0,30.19,ENE,71,0.0,2.0,88,0.00,,,0.00,Wunderground v.1.15,2013-07-03 05:28:00,
2013-07-03 01:29:00,66.7,63.0,30.19,ENE,71,1.0,2.0,88,0.00,,,0.00,Wunderground v.1.15,2013-07-03 05:29:00,
2013-07-03 01:31:00,66.5,62.8,30.19,ENE,71,0.0,1.0,88,0.00,,,0.00,Wunderground v.1.15,2013-07-03 05:31:00,
2013-07-03 01:32:00,66.5,62.8,30.19,ENE,71,0.0,1.0,88,0.00,,,0.00,Wunderground v.1.15,2013-07-03 05:32:00,
2013-07-03 01:33:00,66.5,63.2,30.20,ENE,71,0.0,1.0,89,0.00,,,0.00,Wunderground v.1.15,2013-07-03 05:33:00,
2013-07-03 01:36:00,66.4,62.7,30.20,ENE,71,0.0,1.0,88,0.00,,,0.00,Wunderground v.1.15,2013-07-03 05:36:00,
2013-07-03 01:37:00,66.4,62.7,30.20,ENE,71,0.0,1.0,88,0.00,,,0.00,Wunderground v.1.15,2013-07-03 05:37:00,
2013-07-03 01:38:00,66.4,62.7,30.20,ENE,71,0.0,1.0,88,0.00,,,0.00,Wunderground v.1.15,2013-07-03 05:38:00,
2013-07-03 01:41:00,66.3,62.6,30.20,ENE,71,1.0,1.0,88,0.00,,,0.00,Wunderground v.1.15,2013-07-03 05:41:00,
2013-07-03 01:43:00,66.2,62.5,30.20,ENE,71,0.0,1.0,88,0.00,,,0.00,Wunderground v.1.15,2013-07-03 05:43:00,
2013-07-03 01:44:00,66.2,62.9,30.20,ENE,71,1.0,1.0,89,0.00,,,0.00,Wunderground v.1.15,2013-07-03 05:44:00,
2013-07-03 01:45:00,66.2,62.9,30.20,ENE,71,1.0,1.0,89,0.00,,,0.00,Wunderground v.1.15,2013-07-03 05:45:00,
2013-07-03 01:46:00,66.1,62.8,30.20,ENE,71,1.0,1.0,89,0.00,,,0.00,Wunderground v.1.15,2013-07-03 05:46:00,
2013-07-03 01:47:00,66.1,62.8,30.20,ENE,71,1.0,1.0,89,0.00,,,0.00,Wunderground v.1.15,2013-07-03 05:47:00,
2013-07-03 01:48:00,66.1,62.8,30.20,ENE,71,0.0,1.0,89,0.00,,,0.00,Wunderground v.1.15,2013-07-03 05:48:00,
2013-07-03 01:49:00,66.0,62.7,30.20,ENE,71,0.0,1.0,89,0.00,,,0.00,Wunderground v.1.15,2013-07-03 05:49:00,
2013-07-03 01:50:00,66.0,62.7,30.20,ENE,71,0.0,1.0,89,0.00,,,0.00,Wunderground v.1.15,2013-07-03 05:50:00,
2013-07-03 01:52:00,66.0,62.7,30.20,ENE,71,0.0,1.0,89,0.00,,,0.00,Wunderground v.1.15,2013-07-03 05:52:00,
2013-07-03 01:55:00,65.9,62.6,30.20,ENE,71,0.0,1.0,89,0.00,,,0.00,Wunderground v.1.15,2013-07-03 05:55:00,
2013-07-03 01:58:00,65.9,62.6,30.20,ENE,71,0.0,1.0,89,0.00,,,0.00,Wunderground v.1.15,2013-07-03 05:58:00,
2013-07-03 02:01:00,65.9,62.6,30.20,ENE,72,1.0,2.0,89,0.00,,,0.00,Wunderground v.1.15,2013-07-03 06:01:00,
2013-07-03 02:02:00,65.9,62.6,30.20,East,90,0.0,2.0,89,0.00,,,0.00,Wunderground v.1.15,2013-07-03 06:02:00,
2013-07-03 02:03:00,65.9,62.6,30.20,East,90,0.0,2.0,89,0.00,,,0.00,Wunderground v.1.15,2013-07-03 06:03:00,
2013-07-03 02:04:00,65.9,62.6,30.20,East,90,0.0,2.0,89,0.00,,,0.00,Wunderground v.1.15,2013-07-03 06:04:00,
2013-07-03 02:05:00,65.9,62.6,30.20,East,90,0.0,2.0,89,0.00,,,0.00,Wunderground v.1.15,2013-07-03 06:05:00,
2013-07-03 02:06:00,65.9,62.6,30.20,East,90,0.0,2.0,89,0.00,,,0.00,Wunderground v.1.15,2013-07-03 06:06:00,
2013-07-03 02:08:00,65.8,62.5,30.20,East,90,0.0,2.0,89,0.00,,,0.00,Wunderground v.1.15,2013-07-03 06:08:00,
2013-07-03 02:09:00,65.8,62.5,30.20,East,90,0.0,2.0,89,0.00,,,0.00,Wunderground v.1.15,2013-07-03 06:09:00,
2013-07-03 02:10:00,65.8,62.5,30.20,East,90,0.0,0.0,89,0.00,,,0.00,Wunderground v.1.15,2013-07-03 06:10:00,
2013-07-03 02:12:00,65.8,62.5,30.20,East,90,0.0,1.0,89,0.00,,,0.00,Wunderground v.1.15,2013-07-03 06:12:00,
2013-07-03 02:13:00,65.8,62.5,30.20,East,90,0.0,1.0,89,0.00,,,0.00,Wunderground v.1.15,2013-07-03 06:13:00,
2013-07-03 02:14:00,66.0,62.7,30.20,ENE,71,0.0,1.0,89,0.00,,,0.00,Wunderground v.1.15,2013-07-03 06:14:00,
2013-07-03 02:15:00,65.8,62.5,30.19,East,90,0.0,1.0,89,0.00,,,0.00,Wunderground v.1.15,2013-07-03 06:15:00,
2013-07-03 02:16:00,65.7,62.4,30.19,East,90,0.0,1.0,89,0.00,,,0.00,Wunderground v.1.15,2013-07-03 06:16:00,
2013-07-03 02:17:00,65.7,62.4,30.19,East,90,0.0,1.0,89,0.00,,,0.00,Wunderground v.1.15,2013-07-03 06:17:00,
2013-07-03 02:18:00,65.7,62.4,30.19,East,90,0.0,1.0,89,0.00,,,0.00,Wunderground v.1.15,2013-07-03 06:18:00,
2013-07-03 02:19:00,65.7,62.4,30.19,East,90,0.0,1.0,89,0.00,,,0.00,Wunderground v.1.15,2013-07-03 06:19:00,
2013-07-03 02:20:00,65.9,62.6,30.20,ENE,71,0.0,1.0,89,0.00,,,0.00,Wunderground v.1.15,2013-07-03 06:20:00,
2013-07-03 02:22:00,65.6,62.3,30.19,East,90,0.0,2.0,89,0.00,,,0.00,Wunderground v.1.15,2013-07-03 06:22:00,
2013-07-03 02:23:00,65.6,62.3,30.19,East,90,0.0,2.0,89,0.00,,,0.00,Wunderground v.1.15,2013-07-03 06:23:00,
2013-07-03 02:24:00,65.6,62.3,30.19,East,90,0.0,2.0,89,0.00,,,0.00,Wunderground v.1.15,2013-07-03 06:24:00,
2013-07-03 02:26:00,65.9,62.6,30.20,East,90,1.0,2.0,89,0.00,,,0.00,Wunderground v.1.15,2013-07-03 06:26:00,
2013-07-03 02:27:00,65.5,62.2,30.19,East,90,0.0,2.0,89,0.00,,,0.00,Wunderground v.1.15,2013-07-03 06:27:00,
2013-07-03 02:28:00,65.5,62.2,30.19,East,90,0.0,2.0,89,0.00,,,0.00,Wunderground v.1.15,2013-07-03 06:28:00,
2013-07-03 02:29:00,65.5,62.2,30.20,East,90,0.0,2.0,89,0.00,,,0.00,Wunderground v.1.15,2013-07-03 06:29:00,
2013-07-03 02:31:00,65.8,62.5,30.20,East,90,0.0,2.0,89,0.00,,,0.00,Wunderground v.1.15,2013-07-03 06:31:00,
2013-07-03 02:33:00,65.5,62.2,30.20,East,90,0.0,0.0,89,0.00,,,0.00,Wunderground v.1.15,2013-07-03 06:33:00,
2013-07-03 02:34:00,65.5,62.2,30.20,East,90,1.0,1.0,89,0.00,,,0.00,Wunderground v.1.15,2013-07-03 06:34:00,
2013-07-03 02:35:00,65.5,62.2,30.20,East,90,0.0,1.0,89,0.00,,,0.00,Wunderground v.1.15,2013-07-03 06:35:00,
2013-07-03 02:36:00,65.5,62.2,30.20,East,90,0.0,1.0,89,0.00,,,0.00,Wunderground v.1.15,2013-07-03 06:36:00,
2013-07-03 02:37:00,65.4,62.1,30.20,East,90,0.0,1.0,89,0.00,,,0.00,Wunderground v.1.15,2013-07-03 06:37:00,
2013-07-03 02:38:00,65.8,62.5,30.19,East,90,1.0,1.0,89,0.00,,,0.00,Wunderground v.1.15,2013-07-03 06:38:00,
2013-07-03 02:39:00,65.8,62.5,30.19,East,90,0.0,1.0,89,0.00,,,0.00,Wunderground v.1.15,2013-07-03 06:39:00,
2013-07-03 02:40:00,65.4,62.1,30.20,East,90,0.0,1.0,89,0.00,,,0.00,Wunderground v.1.15,2013-07-03 06:40:00,
2013-07-03 02:42:00,65.4,62.1,30.20,East,90,0.0,1.0,89,0.00,,,0.00,Wunderground v.1.15,2013-07-03 06:42:00,
2013-07-03 02:43:00,65.7,62.4,30.19,East,90,2.0,2.0,89,0.00,,,0.00,Wunderground v.1.15,2013-07-03 06:43:00,
2013-07-03 02:44:00,65.7,62.4,30.19,East,90,0.0,2.0,89,0.00,,,0.00,Wunderground v.1.15,2013-07-03 06:44:00,
2013-07-03 02:49:00,65.6,62.3,30.19,East,90,0.0,2.0,89,0.00,,,0.00,Wunderground v.1.15,2013-07-03 06:49:00,
2013-07-03 02:50:00,65.5,62.2,30.19,East,90,0.0,2.0,89,0.00,,,0.00,Wunderground v.1.15,2013-07-03 06:50:00,
2013-07-03 02:53:00,65.5,62.2,30.20,East,90,0.0,2.0,89,0.00,,,0.00,Wunderground v.1.15,2013-07-03 06:53:00,
2013-07-03 02:54:00,65.5,62.2,30.20,East,90,0.0,0.0,89,0.00,,,0.00,Wunderground v.1.15,2013-07-03 06:54:00,
2013-07-03 02:55:00,65.5,62.2,30.20,East,90,0.0,0.0,89,0.00,,,0.00,Wunderground v.1.15,2013-07-03 06:55:00,
2013-07-03 02:56:00,65.3,62.0,30.20,East,90,0.0,1.0,89,0.00,,,0.00,Wunderground v.1.15,2013-07-03 06:56:00,
2013-07-03 02:57:00,65.2,61.9,30.20,East,90,0.0,1.0,89,0.00,,,0.00,Wunderground v.1.15,2013-07-03 06:57:00,
2013-07-03 02:58:00,65.2,61.9,30.20,East,90,0.0,1.0,89,0.00,,,0.00,Wunderground v.1.15,2013-07-03 06:58:00,
2013-07-03 02:59:00,65.5,62.2,30.20,East,90,0.0,1.0,89,0.00,,,0.00,Wunderground v.1.15,2013-07-03 06:59:00,
2013-07-03 03:00:00,65.4,62.1,30.20,East,90,0.0,1.0,89,0.00,,,0.00,Wunderground v.1.15,2013-07-03 07:00:00,
2013-07-03 03:01:00,65.4,62.1,30.20,East,90,1.0,1.0,89,0.00,,,0.00,Wunderground v.1.15,2013-07-03 07:01:00,
2013-07-03 03:05:00,65.4,62.1,30.20,East,90,0.0,1.0,89,0.00,,,0.00,Wunderground v.1.15,2013-07-03 07:05:00,
2013-07-03 03:06:00,65.4,62.1,30.20,East,90,0.0,1.0,89,0.00,,,0.00,Wunderground v.1.15,2013-07-03 07:06:00,
2013-07-03 03:11:00,65.3,62.0,30.20,East,90,0.0,1.0,89,0.00,,,0.00,Wunderground v.1.15,2013-07-03 07:11:00,
2013-07-03 03:12:00,65.3,62.0,30.20,East,90,0.0,1.0,89,0.00,,,0.00,Wunderground v.1.15,2013-07-03 07:12:00,
2013-07-03 03:14:00,65.0,61.7,30.20,East,90,0.0,0.0,89,0.00,,,0.00,Wunderground v.1.15,2013-07-03 07:14:00,
2013-07-03 03:16:00,65.3,62.0,30.20,East,90,0.0,0.0,89,0.00,,,0.00,Wunderground v.1.15,2013-07-03 07:16:00,
2013-07-03 03:17:00,65.3,62.0,30.20,East,90,0.0,1.0,89,0.00,,,0.00,Wunderground v.1.15,2013-07-03 07:17:00,
2013-07-03 03:18:00,65.0,61.7,30.20,East,90,0.0,1.0,89,0.00,,,0.00,Wunderground v.1.15,2013-07-03 07:18:00,
2013-07-03 03:19:00,65.0,61.7,30.19,East,90,0.0,1.0,89,0.00,,,0.00,Wunderground v.1.15,2013-07-03 07:19:00,
2013-07-03 03:20:00,65.0,61.7,30.19,East,90,0.0,0.0,89,0.00,,,0.00,Wunderground v.1.15,2013-07-03 07:20:00,
2013-07-03 03:21:00,65.2,61.9,30.20,East,90,0.0,1.0,89,0.00,,,0.00,Wunderground v.1.15,2013-07-03 07:21:00,
2013-07-03 03:22:00,65.0,61.7,30.19,East,90,0.0,0.0,89,0.00,,,0.00,Wunderground v.1.15,2013-07-03 07:22:00,
2013-07-03 03:23:00,65.2,61.9,30.20,East,90,0.0,1.0,89,0.00,,,0.00,Wunderground v.1.15,2013-07-03 07:23:00,
2013-07-03 03:24:00,65.0,61.7,30.19,East,90,0.0,1.0,89,0.00,,,0.00,Wunderground v.1.15,2013-07-03 07:24:00,
2013-07-03 03:25:00,65.0,61.7,30.19,East,90,0.0,1.0,89,0.00,,,0.00,Wunderground v.1.15,2013-07-03 07:25:00,
2013-07-03 03:26:00,65.2,61.9,30.20,East,90,0.0,1.0,89,0.00,,,0.00,Wunderground v.1.15,2013-07-03 07:26:00,
2013-07-03 03:27:00,64.9,61.6,30.19,East,90,2.0,2.0,89,0.00,,,0.00,Wunderground v.1.15,2013-07-03 07:27:00,
2013-07-03 03:28:00,65.2,61.9,30.20,East,90,0.0,1.0,89,0.00,,,0.00,Wunderground v.1.15,2013-07-03 07:28:00,
2013-07-03 03:29:00,65.1,61.8,30.19,East,90,0.0,1.0,89,0.00,,,0.00,Wunderground v.1.15,2013-07-03 07:29:00,
2013-07-03 03:30:00,64.9,61.6,30.19,East,90,0.0,1.0,89,0.00,,,0.00,Wunderground v.1.15,2013-07-03 07:30:00,
2013-07-03 03:31:00,65.1,61.8,30.19,East,90,0.0,1.0,89,0.00,,,0.00,Wunderground v.1.15,2013-07-03 07:31:00,
2013-07-03 03:33:00,64.9,61.6,30.19,East,90,0.0,1.0,89,0.00,,,0.00,Wunderground v.1.15,2013-07-03 07:33:00,
2013-07-03 03:34:00,65.1,61.8,30.19,East,90,0.0,0.0,89,0.00,,,0.00,Wunderground v.1.15,2013-07-03 07:34:00,
2013-07-03 03:35:00,64.9,61.6,30.19,East,90,1.0,1.0,89,0.00,,,0.00,Wunderground v.1.15,2013-07-03 07:35:00,
2013-07-03 03:37:00,65.1,61.8,30.20,East,90,0.0,0.0,89,0.00,,,0.00,Wunderground v.1.15,2013-07-03 07:37:00,
2013-07-03 03:39:00,65.0,61.7,30.20,East,90,0.0,0.0,89,0.00,,,0.00,Wunderground v.1.15,2013-07-03 07:39:00,
2013-07-03 03:42:00,65.0,61.7,30.20,East,90,0.0,1.0,89,0.00,,,0.00,Wunderground v.1.15,2013-07-03 07:42:00,
2013-07-03 03:43:00,64.9,61.6,30.19,East,90,0.0,0.0,89,0.00,,,0.00,Wunderground v.1.15,2013-07-03 07:43:00,
2013-07-03 03:44:00,65.0,61.7,30.20,East,90,0.0,0.0,89,0.00,,,0.00,Wunderground v.1.15,2013-07-03 07:44:00,
2013-07-03 03:45:00,64.9,61.6,30.19,East,90,1.0,1.0,89,0.00,,,0.00,Wunderground v.1.15,2013-07-03 07:45:00,
2013-07-03 03:46:00,64.9,61.6,30.19,East,90,1.0,1.0,89,0.00,,,0.00,Wunderground v.1.15,2013-07-03 07:46:00,
2013-07-03 03:47:00,65.0,61.7,30.19,East,90,1.0,1.0,89,0.00,,,0.00,Wunderground v.1.15,2013-07-03 07:47:00,
2013-07-03 03:48:00,65.0,61.7,30.19,East,90,0.0,1.0,89,0.00,,,0.00,Wunderground v.1.15,2013-07-03 07:48:00,
2013-07-03 03:49:00,65.0,61.7,30.19,East,90,0.0,1.0,89,0.00,,,0.00,Wunderground v.1.15,2013-07-03 07:49:00,
2013-07-03 03:50:00,65.0,61.7,30.19,East,90,1.0,1.0,89,0.00,,,0.00,Wunderground v.1.15,2013-07-03 07:50:00,
2013-07-03 03:51:00,64.9,61.6,30.19,East,90,1.0,1.0,89,0.00,,,0.00,Wunderground v.1.15,2013-07-03 07:51:00,
2013-07-03 03:52:00,65.0,61.7,30.19,East,90,0.0,0.0,89,0.00,,,0.00,Wunderground v.1.15,2013-07-03 07:52:00,
2013-07-03 03:53:00,64.9,61.6,30.19,East,90,1.0,3.0,89,0.00,,,0.00,Wunderground v.1.15,2013-07-03 07:53:00,
2013-07-03 03:54:00,65.0,61.7,30.19,East,90,0.0,0.0,89,0.00,,,0.00,Wunderground v.1.15,2013-07-03 07:54:00,
2013-07-03 03:55:00,64.9,61.6,30.19,East,90,0.0,1.0,89,0.00,,,0.00,Wunderground v.1.15,2013-07-03 07:55:00,
2013-07-03 03:56:00,64.9,61.6,30.19,East,90,0.0,1.0,89,0.00,,,0.00,Wunderground v.1.15,2013-07-03 07:56:00,
2013-07-03 03:57:00,65.0,61.7,30.19,East,90,0.0,1.0,89,0.00,,,0.00,Wunderground v.1.15,2013-07-03 07:57:00,
2013-07-03 03:58:00,64.9,61.6,30.19,East,90,0.0,1.0,89,0.00,,,0.00,Wunderground v.1.15,2013-07-03 07:58:00,
2013-07-03 03:59:00,65.0,61.7,30.19,East,90,0.0,2.0,89,0.00,,,0.00,Wunderground v.1.15,2013-07-03 07:59:00,
2013-07-03 04:00:00,65.0,61.7,30.19,East,90,1.0,1.0,89,0.00,,,0.00,Wunderground v.1.15,2013-07-03 08:00:00,
2013-07-03 04:01:00,64.9,61.6,30.19,East,90,0.0,1.0,89,0.00,,,0.00,Wunderground v.1.15,2013-07-03 08:01:00,
2013-07-03 04:02:00,64.9,61.6,30.19,East,90,0.0,1.0,89,0.00,,,0.00,Wunderground v.1.15,2013-07-03 08:02:00,
2013-07-03 04:03:00,64.9,61.6,30.19,East,90,0.0,0.0,89,0.00,,,0.00,Wunderground v.1.15,2013-07-03 08:03:00,
2013-07-03 04:04:00,65.0,61.7,30.19,East,90,0.0,1.0,89,0.00,,,0.00,Wunderground v.1.15,2013-07-03 08:04:00,
2013-07-03 04:07:00,64.9,61.6,30.19,East,90,0.0,0.0,89,0.00,,,0.00,Wunderground v.1.15,2013-07-03 08:07:00,
2013-07-03 04:08:00,64.9,61.6,30.19,East,90,0.0,0.0,89,0.00,,,0.00,Wunderground v.1.15,2013-07-03 08:08:00,
2013-07-03 04:09:00,65.0,61.7,30.19,East,90,1.0,1.0,89,0.00,,,0.00,Wunderground v.1.15,2013-07-03 08:09:00,
2013-07-03 04:12:00,64.9,61.6,30.19,East,90,1.0,1.0,89,0.00,,,0.00,Wunderground v.1.15,2013-07-03 08:12:00,
2013-07-03 04:15:00,65.0,61.7,30.19,East,90,0.0,0.0,89,0.00,,,0.00,Wunderground v.1.15,2013-07-03 08:15:00,
2013-07-03 04:16:00,65.1,61.8,30.19,East,90,0.0,1.0,89,0.00,,,0.00,Wunderground v.1.15,2013-07-03 08:16:00,
2013-07-03 04:17:00,65.1,61.8,30.19,East,90,1.0,1.0,89,0.00,,,0.00,Wunderground v.1.15,2013-07-03 08:17:00,
2013-07-03 04:18:00,65.1,61.8,30.19,East,90,0.0,1.0,89,0.00,,,0.00,Wunderground v.1.15,2013-07-03 08:18:00,
2013-07-03 04:19:00,65.1,61.8,30.19,East,90,0.0,1.0,89,0.00,,,0.00,Wunderground v.1.15,2013-07-03 08:19:00,
2013-07-03 04:20:00,65.0,61.7,30.19,East,90,0.0,0.0,89,0.00,,,0.00,Wunderground v.1.15,2013-07-03 08:20:00,
2013-07-03 04:21:00,65.1,61.8,30.19,East,90,0.0,1.0,89,0.00,,,0.00,Wunderground v.1.15,2013-07-03 08:21:00,
2013-07-03 04:22:00,65.0,61.7,30.19,East,90,0.0,2.0,89,0.00,,,0.00,Wunderground v.1.15,2013-07-03 08:22:00,
2013-07-03 04:23:00,65.1,61.8,30.19,East,90,0.0,1.0,89,0.00,,,0.00,Wunderground v.1.15,2013-07-03 08:23:00,
2013-07-03 04:24:00,65.1,61.8,30.19,East,90,0.0,1.0,89,0.00,,,0.00,Wunderground v.1.15,2013-07-03 08:24:00,
2013-07-03 04:25:00,65.0,61.7,30.19,East,90,1.0,1.0,89,0.00,,,0.00,Wunderground v.1.15,2013-07-03 08:25:00,
2013-07-03 04:26:00,65.1,61.8,30.20,East,90,0.0,1.0,89,0.00,,,0.00,Wunderground v.1.15,2013-07-03 08:26:00,
2013-07-03 04:27:00,65.0,61.7,30.19,East,90,1.0,1.0,89,0.00,,,0.00,Wunderground v.1.15,2013-07-03 08:27:00,
2013-07-03 04:29:00,65.1,61.8,30.20,East,90,0.0,1.0,89,0.00,,,0.00,Wunderground v.1.15,2013-07-03 08:29:00,
2013-07-03 04:31:00,65.2,61.9,30.20,East,90,0.0,0.0,89,0.00,,,0.00,Wunderground v.1.15,2013-07-03 08:31:00,
2013-07-03 04:32:00,65.0,61.7,30.19,East,90,0.0,1.0,89,0.00,,,0.00,Wunderground v.1.15,2013-07-03 08:32:00,
2013-07-03 04:33:00,65.0,61.7,30.19,East,90,0.0,0.0,89,0.00,,,0.00,Wunderground v.1.15,2013-07-03 08:33:00,
2013-07-03 04:34:00,65.2,61.9,30.20,East,90,0.0,0.0,89,0.00,,,0.00,Wunderground v.1.15,2013-07-03 08:34:00,
2013-07-03 04:35:00,65.2,61.9,30.20,East,90,0.0,0.0,89,0.00,,,0.00,Wunderground v.1.15,2013-07-03 08:35:00,
2013-07-03 04:36:00,65.2,61.9,30.20,East,90,0.0,0.0,89,0.00,,,0.00,Wunderground v.1.15,2013-07-03 08:36:00,
2013-07-03 04:37:00,65.3,62.0,30.20,East,90,0.0,0.0,89,0.00,,,0.00,Wunderground v.1.15,2013-07-03 08:37:00,
2013-07-03 04:38:00,65.0,61.7,30.19,East,90,0.0,1.0,89,0.00,,,0.00,Wunderground v.1.15,2013-07-03 08:38:00,
2013-07-03 04:39:00,65.3,62.0,30.20,East,90,0.0,0.0,89,0.00,,,0.00,Wunderground v.1.15,2013-07-03 08:39:00,
2013-07-03 04:40:00,65.3,62.0,30.20,East,90,0.0,0.0,89,0.00,,,0.00,Wunderground v.1.15,2013-07-03 08:40:00,
2013-07-03 04:42:00,65.4,62.1,30.20,East,90,0.0,1.0,89,0.00,,,0.00,Wunderground v.1.15,2013-07-03 08:42:00,
2013-07-03 04:43:00,65.0,61.7,30.19,East,90,0.0,1.0,89,0.00,,,0.00,Wunderground v.1.15,2013-07-03 08:43:00,
2013-07-03 04:44:00,65.1,61.8,30.19,East,90,0.0,1.0,89,0.00,,,0.00,Wunderground v.1.15,2013-07-03 08:44:00,
2013-07-03 04:45:00,65.4,62.1,30.19,East,90,0.0,2.0,89,0.00,,,0.00,Wunderground v.1.15,2013-07-03 08:45:00,
2013-07-03 04:46:00,65.4,62.1,30.19,East,90,0.0,2.0,89,0.00,,,0.00,Wunderground v.1.15,2013-07-03 08:46:00,
2013-07-03 04:48:00,65.1,61.8,30.19,East,90,0.0,1.0,89,0.00,,,0.00,Wunderground v.1.15,2013-07-03 08:48:00,
2013-07-03 04:49:00,65.1,61.8,30.20,East,90,0.0,1.0,89,0.00,,,0.00,Wunderground v.1.15,2013-07-03 08:49:00,
2013-07-03 04:50:00,65.1,61.8,30.20,East,90,0.0,1.0,89,0.00,,,0.00,Wunderground v.1.15,2013-07-03 08:50:00,
2013-07-03 04:53:00,65.1,61.8,30.20,East,90,0.0,0.0,89,0.00,,,0.00,Wunderground v.1.15,2013-07-03 08:53:00,
2013-07-03 04:55:00,65.1,61.8,30.20,East,90,0.0,0.0,89,0.00,,,0.00,Wunderground v.1.15,2013-07-03 08:55:00,
2013-07-03 05:00:00,65.3,62.0,30.20,East,90,0.0,0.0,89,0.00,,,0.00,Wunderground v.1.15,2013-07-03 09:00:00,
2013-07-03 05:05:00,65.4,62.1,30.20,East,90,0.0,1.0,89,0.00,,,0.00,Wunderground v.1.15,2013-07-03 09:05:00,
2013-07-03 05:07:00,65.4,62.1,30.20,East,90,0.0,2.0,89,0.00,,,0.00,Wunderground v.1.15,2013-07-03 09:07:00,
2013-07-03 05:10:00,65.4,62.1,30.19,East,90,0.0,2.0,89,0.00,,,0.00,Wunderground v.1.15,2013-07-03 09:10:00,
2013-07-03 05:11:00,65.5,62.2,30.19,East,90,0.0,2.0,89,0.00,,,0.00,Wunderground v.1.15,2013-07-03 09:11:00,
2013-07-03 05:12:00,65.5,62.2,30.19,East,90,0.0,2.0,89,0.00,,,0.00,Wunderground v.1.15,2013-07-03 09:12:00,
2013-07-03 05:16:00,65.6,62.3,30.19,East,90,0.0,1.0,89,0.00,,,0.00,Wunderground v.1.15,2013-07-03 09:16:00,
2013-07-03 05:17:00,65.6,62.3,30.19,East,90,0.0,1.0,89,0.00,,,0.00,Wunderground v.1.15,2013-07-03 09:17:00,
2013-07-03 05:18:00,67.4,63.7,30.20,South,186,1.0,4.0,88,0.00,,,0.00,Wunderground v.1.15,2013-07-03 09:18:00,
2013-07-03 05:19:00,67.6,63.9,30.20,South,186,0.0,4.0,88,0.00,,,0.00,Wunderground v.1.15,2013-07-03 09:19:00,
2013-07-03 05:21:00,65.8,62.5,30.19,East,90,1.0,1.0,89,0.00,,,0.00,Wunderground v.1.15,2013-07-03 09:21:00,
2013-07-03 05:22:00,65.9,62.6,30.19,East,90,1.0,1.0,89,0.00,,,0.00,Wunderground v.1.15,2013-07-03 09:22:00,
2013-07-03 05:23:00,67.8,64.1,30.20,South,186,2.0,2.0,88,0.00,,,0.00,Wunderground v.1.15,2013-07-03 09:23:00,
2013-07-03 05:24:00,66.1,62.4,30.19,East,90,0.0,1.0,88,0.00,,,0.00,Wunderground v.1.15,2013-07-03 09:24:00,
2013-07-03 05:25:00,68.0,64.3,30.20,South,186,1.0,3.0,88,0.00,,,0.00,Wunderground v.1.15,2013-07-03 09:25:00,
2013-07-03 05:26:00,68.1,64.4,30.20,South,189,1.0,3.0,88,0.00,,,0.00,Wunderground v.1.15,2013-07-03 09:26:00,
2013-07-03 05:27:00,66.2,62.5,30.19,East,90,0.0,1.0,88,0.00,,,0.00,Wunderground v.1.15,2013-07-03 09:27:00,
2013-07-03 05:28:00,66.3,62.6,30.19,East,90,1.0,1.0,88,0.00,,,0.00,Wunderground v.1.15,2013-07-03 09:28:00,
2013-07-03 05:29:00,66.3,62.6,30.19,East,90,1.0,2.0,88,0.00,,,0.00,Wunderground v.1.15,2013-07-03 09:29:00,
2013-07-03 05:30:00,66.4,62.7,30.19,East,91,1.0,2.0,88,0.00,,,0.00,Wunderground v.1.15,2013-07-03 09:30:00,
2013-07-03 05:31:00,68.4,64.7,30.20,SSW,196,1.0,2.0,88,0.00,,,0.00,Wunderground v.1.15,2013-07-03 09:31:00,
2013-07-03 05:32:00,66.6,62.9,30.19,East,91,2.0,2.0,88,0.00,,,0.00,Wunderground v.1.15,2013-07-03 09:32:00,
2013-07-03 05:33:00,66.7,63.0,30.19,East,97,1.0,2.0,88,0.00,,,0.00,Wunderground v.1.15,2013-07-03 09:33:00,
2013-07-03 05:34:00,66.8,63.1,30.19,East,97,0.0,1.0,88,0.00,,,0.00,Wunderground v.1.15,2013-07-03 09:34:00,
2013-07-03 05:35:00,66.9,63.2,30.19,East,97,0.0,1.0,88,0.00,,,0.00,Wunderground v.1.15,2013-07-03 09:35:00,
2013-07-03 05:36:00,68.8,65.1,30.20,SW,219,0.0,7.0,88,0.00,,,0.00,Wunderground v.1.15,2013-07-03 09:36:00,
2013-07-03 05:37:00,68.8,65.1,30.20,SW,220,4.0,7.0,88,0.00,,,0.00,Wunderground v.1.15,2013-07-03 09:37:00,
2013-07-03 05:38:00,67.2,63.5,30.19,South,186,0.0,4.0,88,0.00,,,0.00,Wunderground v.1.15,2013-07-03 09:38:00,
2013-07-03 05:39:00,67.3,63.6,30.19,South,186,0.0,4.0,88,0.00,,,0.00,Wunderground v.1.15,2013-07-03 09:39:00,
2013-07-03 05:40:00,67.4,63.7,30.20,South,186,1.0,4.0,88,0.00,,,0.00,Wunderground v.1.15,2013-07-03 09:40:00,
2013-07-03 05:41:00,69.0,65.3,30.20,WSW,252,3.0,5.0,88,0.00,,,0.00,Wunderground v.1.15,2013-07-03 09:41:00,
2013-07-03 05:42:00,69.0,65.3,30.20,SW,235,3.0,5.0,88,0.00,,,0.00,Wunderground v.1.15,2013-07-03 09:42:00,
2013-07-03 05:44:00,67.7,64.0,30.20,South,186,0.0,1.0,88,0.00,,,0.00,Wunderground v.1.15,2013-07-03 09:44:00,
2013-07-03 05:45:00,67.7,64.0,30.20,South,186,0.0,1.0,88,0.00,,,0.00,Wunderground v.1.15,2013-07-03 09:45:00,
2013-07-03 05:46:00,69.3,65.6,30.20,South,173,0.0,9.0,88,0.00,,,0.00,Wunderground v.1.15,2013-07-03 09:46:00,
2013-07-03 05:47:00,69.4,65.7,30.20,SW,228,4.0,9.0,88,0.00,,,0.00,Wunderground v.1.15,2013-07-03 09:47:00,
2013-07-03 05:48:00,69.4,65.7,30.20,SW,223,3.0,9.0,88,0.00,,,0.00,Wunderground v.1.15,2013-07-03 09:48:00,
2013-07-03 05:49:00,69.4,66.0,30.20,SSW,211,4.0,9.0,89,0.00,,,0.00,Wunderground v.1.15,2013-07-03 09:49:00,
2013-07-03 05:50:00,69.5,66.1,30.21,South,180,4.0,6.0,89,0.00,,,0.00,Wunderground v.1.15,2013-07-03 09:50:00,
2013-07-03 05:51:00,68.2,64.5,30.20,South,189,3.0,3.0,88,0.00,,,0.00,Wunderground v.1.15,2013-07-03 09:51:00,
2013-07-03 05:52:00,69.5,66.1,30.20,SSW,207,1.0,6.0,89,0.00,,,0.00,Wunderground v.1.15,2013-07-03 09:52:00,
2013-07-03 05:54:00,69.6,66.2,30.21,WSW,246,3.0,6.0,89,0.00,,,0.00,Wunderground v.1.15,2013-07-03 09:54:00,
2013-07-03 05:56:00,68.5,64.8,30.20,SSW,211,5.0,7.0,88,0.00,,,0.00,Wunderground v.1.15,2013-07-03 09:56:00,
2013-07-03 05:57:00,68.6,64.9,30.20,SSW,194,1.0,7.0,88,0.00,,,0.00,Wunderground v.1.15,2013-07-03 09:57:00,
2013-07-03 06:00:00,68.8,65.1,30.20,SW,236,4.0,7.0,88,0.00,,,0.00,Wunderground v.1.15,2013-07-03 10:00:00,
2013-07-03 06:01:00,68.9,65.2,30.20,SW,236,1.0,7.0,88,0.00,,,0.00,Wunderground v.1.15,2013-07-03 10:01:00,
2013-07-03 06:02:00,68.9,65.2,30.20,WSW,243,1.0,7.0,88,0.00,,,0.00,Wunderground v.1.15,2013-07-03 10:02:00,
2013-07-03 06:06:00,69.1,65.4,30.20,SW,235,1.0,5.0,88,0.00,,,0.00,Wunderground v.1.15,2013-07-03 10:06:00,
2013-07-03 06:08:00,69.2,65.5,30.20,SSW,213,3.0,9.0,88,0.00,,,0.00,Wunderground v.1.15,2013-07-03 10:08:00,
2013-07-03 06:11:00,69.4,65.7,30.20,SW,223,4.0,9.0,88,0.00,,,0.00,Wunderground v.1.15,2013-07-03 10:11:00,
2013-07-03 06:12:00,70.0,66.6,30.22,SW,223,5.0,7.0,89,0.00,,,0.00,Wunderground v.1.15,2013-07-03 10:12:00,
2013-07-03 06:13:00,70.1,66.7,30.21,SSW,213,6.0,9.0,89,0.00,,,0.00,Wunderground v.1.15,2013-07-03 10:13:00,
2013-07-03 06:14:00,69.5,66.1,30.21,South,187,4.0,6.0,89,0.00,,,0.00,Wunderground v.1.15,2013-07-03 10:14:00,
2013-07-03 06:15:00,70.2,66.8,30.21,SW,234,3.0,9.0,89,0.00,,,0.00,Wunderground v.1.15,2013-07-03 10:15:00,
2013-07-03 06:16:00,70.3,66.9,30.22,WSW,255,1.0,9.0,89,0.00,,,0.00,Wunderground v.1.15,2013-07-03 10:16:00,
2013-07-03 06:17:00,69.6,66.2,30.21,WSW,246,2.0,6.0,89,0.00,,,0.00,Wunderground v.1.15,2013-07-03 10:17:00,
2013-07-03 06:18:00,69.6,66.2,30.21,WSW,244,8.0,8.0,89,0.00,,,0.00,Wunderground v.1.15,2013-07-03 10:18:00,
2013-07-03 06:19:00,70.4,67.0,30.22,West,275,4.0,12.0,89,0.00,,,0.00,Wunderground v.1.15,2013-07-03 10:19:00,
2013-07-03 06:20:00,69.7,66.3,30.21,SW,225,0.0,8.0,89,0.00,,,0.00,Wunderground v.1.15,2013-07-03 10:20:00,
2013-07-03 06:23:00,69.7,66.3,30.21,SW,234,1.0,8.0,89,0.00,,,0.00,Wunderground v.1.15,2013-07-03 10:23:00,
2013-07-03 06:24:00,69.7,66.3,30.21,SW,234,2.0,3.0,89,0.00,,,0.00,Wunderground v.1.15,2013-07-03 10:24:00,
2013-07-03 06:25:00,70.8,67.4,30.22,WSW,252,5.0,9.0,89,0.00,,,0.00,Wunderground v.1.15,2013-07-03 10:25:00,
2013-07-03 06:27:00,70.9,67.5,30.22,WNW,298,1.0,9.0,89,0.00,,,0.00,Wunderground v.1.15,2013-07-03 10:27:00,
2013-07-03 06:28:00,70.9,67.5,30.22,SSW,203,2.0,9.0,89,0.00,,,0.00,Wunderground v.1.15,2013-07-03 10:28:00,
2013-07-03 06:29:00,69.9,66.5,30.21,SSW,193,0.0,7.0,89,0.00,,,0.00,Wunderground v.1.15,2013-07-03 10:29:00,
2013-07-03 06:30:00,69.9,66.5,30.21,SW,216,3.0,7.0,89,0.00,,,0.00,Wunderground v.1.15,2013-07-03 10:30:00,
2013-07-03 06:31:00,69.9,66.5,30.21,SW,216,2.0,7.0,89,0.00,,,0.00,Wunderground v.1.15,2013-07-03 10:31:00,
2013-07-03 06:32:00,71.0,67.6,30.22,SSW,205,4.0,7.0,89,0.00,,,0.00,Wunderground v.1.15,2013-07-03 10:32:00,
2013-07-03 06:33:00,71.0,67.6,30.22,SSW,201,3.0,9.0,89,0.00,,,0.00,Wunderground v.1.15,2013-07-03 10:33:00,
2013-07-03 06:34:00,70.9,67.5,30.22,South,190,2.0,9.0,89,0.00,,,0.00,Wunderground v.1.15,2013-07-03 10:34:00,
2013-07-03 06:35:00,70.0,66.6,30.22,SW,228,2.0,3.0,89,0.00,,,0.00,Wunderground v.1.15,2013-07-03 10:35:00,
2013-07-03 06:36:00,70.1,66.7,30.21,WSW,246,9.0,9.0,89,0.00,,,0.00,Wunderground v.1.15,2013-07-03 10:36:00,
2013-07-03 06:37:00,70.9,67.5,30.22,SW,229,1.0,9.0,89,0.00,,,0.00,Wunderground v.1.15,2013-07-03 10:37:00,
2013-07-03 06:38:00,70.9,67.5,30.22,SW,234,5.0,9.0,89,0.00,,,0.00,Wunderground v.1.15,2013-07-03 10:38:00,
2013-07-03 06:39:00,70.9,67.5,30.22,WSW,258,3.0,9.0,89,0.00,,,0.00,Wunderground v.1.15,2013-07-03 10:39:00,
2013-07-03 06:40:00,70.3,66.9,30.22,WSW,255,2.0,9.0,89,0.00,,,0.00,Wunderground v.1.15,2013-07-03 10:40:00,
2013-07-03 06:41:00,70.4,67.0,30.22,WSW,242,6.0,9.0,89,0.00,,,0.00,Wunderground v.1.15,2013-07-03 10:41:00,
2013-07-03 06:42:00,70.9,67.5,30.22,SSW,202,6.0,6.0,89,0.00,,,0.00,Wunderground v.1.15,2013-07-03 10:42:00,
2013-07-03 06:43:00,70.9,67.5,30.22,South,179,10.0,10.0,89,0.00,,,0.00,Wunderground v.1.15,2013-07-03 10:43:00,
2013-07-03 06:44:00,70.6,67.2,30.22,WSW,253,4.0,8.0,89,0.00,,,0.00,Wunderground v.1.15,2013-07-03 10:44:00,
2013-07-03 06:45:00,70.9,67.5,30.22,SSW,206,2.0,10.0,89,0.00,,,0.00,Wunderground v.1.15,2013-07-03 10:45:00,
2013-07-03 06:46:00,71.0,67.6,30.22,South,191,0.0,10.0,89,0.00,,,0.00,Wunderground v.1.15,2013-07-03 10:46:00,
2013-07-03 06:47:00,70.7,67.3,30.22,WNW,289,3.0,8.0,89,0.00,,,0.00,Wunderground v.1.15,2013-07-03 10:47:00,
2013-07-03 06:48:00,71.0,67.6,30.22,WSW,250,1.0,10.0,89,0.00,,,0.00,Wunderground v.1.15,2013-07-03 10:48:00,
2013-07-03 06:50:00,70.9,67.5,30.22,WNW,298,2.0,9.0,89,0.00,,,0.00,Wunderground v.1.15,2013-07-03 10:50:00,
2013-07-03 06:51:00,71.1,67.7,30.22,WSW,248,4.0,4.0,89,0.00,,,0.00,Wunderground v.1.15,2013-07-03 10:51:00,
2013-07-03 06:52:00,71.1,67.7,30.22,SSW,204,5.0,9.0,89,0.00,,,0.00,Wunderground v.1.15,2013-07-03 10:52:00,
2013-07-03 06:53:00,71.1,67.7,30.22,SW,228,6.0,6.0,89,0.00,,,0.00,Wunderground v.1.15,2013-07-03 10:53:00,
2013-07-03 06:54:00,71.2,67.8,30.22,SW,216,3.0,6.0,89,0.00,,,0.00,Wunderground v.1.15,2013-07-03 10:54:00,
2013-07-03 06:55:00,71.0,67.6,30.22,SW,221,5.0,9.0,89,0.00,,,0.00,Wunderground v.1.15,2013-07-03 10:55:00,
2013-07-03 06:56:00,71.2,67.8,30.22,WSW,243,4.0,6.0,89,0.00,,,0.00,Wunderground v.1.15,2013-07-03 10:56:00,
2013-07-03 06:57:00,71.3,67.9,30.22,SSW,211,3.0,6.0,89,0.00,,,0.00,Wunderground v.1.15,2013-07-03 10:57:00,
2013-07-03 06:58:00,71.3,67.6,30.22,WSW,248,3.0,11.0,88,0.00,,,0.00,Wunderground v.1.15,2013-07-03 10:58:00,
2013-07-03 06:59:00,70.9,67.5,30.22,SW,227,8.0,9.0,89,0.00,,,0.00,Wunderground v.1.15,2013-07-03 10:59:00,
2013-07-03 07:00:00,70.9,67.5,30.22,SW,229,1.0,9.0,89,0.00,,,0.00,Wunderground v.1.15,2013-07-03 11:00:00,
2013-07-03 07:02:00,71.6,67.9,30.22,WSW,254,12.0,12.0,88,0.00,,,0.00,Wunderground v.1.15,2013-07-03 11:02:00,
2013-07-03 07:03:00,71.7,68.0,30.23,SSW,200,7.0,12.0,88,0.00,,,0.00,Wunderground v.1.15,2013-07-03 11:03:00,
2013-07-03 07:04:00,70.9,67.5,30.22,SW,229,0.0,4.0,89,0.00,,,0.00,Wunderground v.1.15,2013-07-03 11:04:00,
2013-07-03 07:05:00,71.8,68.1,30.22,SW,215,3.0,12.0,88,0.00,,,0.00,Wunderground v.1.15,2013-07-03 11:05:00,
2013-07-03 07:06:00,70.9,67.5,30.22,WSW,257,4.0,5.0,89,0.00,,,0.00,Wunderground v.1.15,2013-07-03 11:06:00,
2013-07-03 07:07:00,70.9,67.5,30.22,SSE,167,3.0,10.0,89,0.00,,,0.00,Wunderground v.1.15,2013-07-03 11:07:00,
2013-07-03 07:09:00,72.3,68.5,30.22,South,175,4.0,12.0,88,0.00,,,0.00,Wunderground v.1.15,2013-07-03 11:09:00,
2013-07-03 07:11:00,71.0,67.6,30.22,WSW,250,5.0,10.0,89,0.00,,,0.00,Wunderground v.1.15,2013-07-03 11:11:00,
2013-07-03 07:12:00,71.0,67.6,30.22,SW,232,3.0,10.0,89,0.00,,,0.00,Wunderground v.1.15,2013-07-03 11:12:00,
2013-07-03 07:13:00,72.5,68.7,30.22,WSW,252,1.0,7.0,88,0.00,,,0.00,Wunderground v.1.15,2013-07-03 11:13:00,
2013-07-03 07:14:00,72.5,68.7,30.22,WSW,257,3.0,7.0,88,0.00,,,0.00,Wunderground v.1.15,2013-07-03 11:14:00,
2013-07-03 07:15:00,72.6,68.5,30.22,SSW,200,3.0,11.0,87,0.00,,,0.00,Wunderground v.1.15,2013-07-03 11:15:00,
2013-07-03 07:16:00,71.1,67.7,30.22,SW,229,5.0,5.0,89,0.00,,,0.00,Wunderground v.1.15,2013-07-03 11:16:00,
2013-07-03 07:17:00,72.5,68.4,30.22,South,184,4.0,11.0,87,0.00,,,0.00,Wunderground v.1.15,2013-07-03 11:17:00,
2013-07-03 07:18:00,71.2,67.8,30.22,SW,216,0.0,6.0,89,0.00,,,0.00,Wunderground v.1.15,2013-07-03 11:18:00,
2013-07-03 07:20:00,71.2,67.8,30.22,WSW,238,3.0,6.0,89,0.00,,,0.00,Wunderground v.1.15,2013-07-03 11:20:00,
2013-07-03 07:22:00,71.4,67.7,30.22,WSW,254,3.0,11.0,88,0.00,,,0.00,Wunderground v.1.15,2013-07-03 11:22:00,
2013-07-03 07:23:00,72.4,68.3,30.23,SW,235,6.0,12.0,87,0.00,,,0.00,Wunderground v.1.15,2013-07-03 11:23:00,
2013-07-03 07:24:00,72.4,68.6,30.23,WSW,242,5.0,12.0,88,0.00,,,0.00,Wunderground v.1.15,2013-07-03 11:24:00,
2013-07-03 07:25:00,71.6,67.9,30.22,SW,226,8.0,12.0,88,0.00,,,0.00,Wunderground v.1.15,2013-07-03 11:25:00,
2013-07-03 07:27:00,72.5,68.4,30.23,SSE,152,7.0,12.0,87,0.00,,,0.00,Wunderground v.1.15,2013-07-03 11:27:00,
2013-07-03 07:28:00,71.9,68.2,30.22,SW,215,3.0,12.0,88,0.00,,,0.00,Wunderground v.1.15,2013-07-03 11:28:00,
2013-07-03 07:29:00,72.5,68.4,30.23,SSW,195,3.0,12.0,87,0.00,,,0.00,Wunderground v.1.15,2013-07-03 11:29:00,
2013-07-03 07:30:00,72.1,68.3,30.22,SW,232,4.0,12.0,88,0.00,,,0.00,Wunderground v.1.15,2013-07-03 11:30:00,
2013-07-03 07:31:00,72.5,68.4,30.23,SSW,211,3.0,6.0,87,0.00,,,0.00,Wunderground v.1.15,2013-07-03 11:31:00,
2013-07-03 07:33:00,72.4,68.6,30.23,WNW,292,3.0,4.0,88,0.00,,,0.00,Wunderground v.1.15,2013-07-03 11:33:00,
2013-07-03 07:36:00,72.5,68.7,30.22,South,179,6.0,6.0,88,0.00,,,0.00,Wunderground v.1.15,2013-07-03 11:36:00,
2013-07-03 07:37:00,72.5,68.4,30.23,South,178,3.0,7.0,87,0.00,,,0.00,Wunderground v.1.15,2013-07-03 11:37:00,
2013-07-03 07:38:00,72.5,68.4,30.23,NW,311,3.0,7.0,87,0.00,,,0.00,Wunderground v.1.15,2013-07-03 11:38:00,
2013-07-03 07:39:00,72.6,68.5,30.22,SSW,200,3.0,11.0,87,0.00,,,0.00,Wunderground v.1.15,2013-07-03 11:39:00,
2013-07-03 07:40:00,72.5,68.4,30.23,WSW,239,1.0,8.0,87,0.00,,,0.00,Wunderground v.1.15,2013-07-03 11:40:00,
2013-07-03 07:41:00,72.5,68.4,30.22,SE,143,3.0,11.0,87,0.00,,,0.00,Wunderground v.1.15,2013-07-03 11:41:00,
2013-07-03 07:42:00,72.5,68.4,30.22,WSW,244,3.0,11.0,87,0.00,,,0.00,Wunderground v.1.15,2013-07-03 11:42:00,
2013-07-03 07:43:00,72.5,68.4,30.23,SW,219,2.0,8.0,87,0.00,,,0.00,Wunderground v.1.15,2013-07-03 11:43:00,
2013-07-03 07:44:00,72.5,68.4,30.23,South,189,1.0,8.0,87,0.00,,,0.00,Wunderground v.1.15,2013-07-03 11:44:00,
2013-07-03 07:45:00,72.5,68.4,30.23,SW,218,9.0,9.0,87,0.00,,,0.00,Wunderground v.1.15,2013-07-03 11:45:00,
2013-07-03 07:46:00,72.4,68.3,30.23,SW,236,4.0,12.0,87,0.00,,,0.00,Wunderground v.1.15,2013-07-03 11:46:00,
2013-07-03 07:47:00,72.4,68.6,30.23,WSW,245,8.0,12.0,88,0.00,,,0.00,Wunderground v.1.15,2013-07-03 11:47:00,
2013-07-03 07:48:00,72.4,68.3,30.23,WSW,253,4.0,12.0,87,0.00,,,0.00,Wunderground v.1.15,2013-07-03 11:48:00,
2013-07-03 07:49:00,72.5,68.4,30.23,SSW,207,2.0,16.0,87,0.00,,,0.00,Wunderground v.1.15,2013-07-03 11:49:00,
2013-07-03 07:51:00,72.5,68.4,30.23,SSW,210,2.0,12.0,87,0.00,,,0.00,Wunderground v.1.15,2013-07-03 11:51:00,
2013-07-03 07:52:00,72.5,68.4,30.23,SSW,194,4.0,12.0,87,0.00,,,0.00,Wunderground v.1.15,2013-07-03 11:52:00,
2013-07-03 07:53:00,72.5,68.4,30.23,SW,221,4.0,5.0,87,0.00,,,0.00,Wunderground v.1.15,2013-07-03 11:53:00,
2013-07-03 07:55:00,72.6,68.8,30.23,SSE,162,2.0,5.0,88,0.00,,,0.00,Wunderground v.1.15,2013-07-03 11:55:00,
2013-07-03 07:56:00,72.6,68.5,30.23,SSW,195,0.0,5.0,87,0.00,,,0.00,Wunderground v.1.15,2013-07-03 11:56:00,
2013-07-03 07:57:00,72.5,68.4,30.23,South,176,3.0,6.0,87,0.00,,,0.00,Wunderground v.1.15,2013-07-03 11:57:00,
2013-07-03 07:58:00,72.6,68.5,30.23,SSW,207,0.0,5.0,87,0.00,,,0.00,Wunderground v.1.15,2013-07-03 11:58:00,
2013-07-03 07:59:00,72.5,68.4,30.23,WSW,238,5.0,6.0,87,0.00,,,0.00,Wunderground v.1.15,2013-07-03 11:59:00,
2013-07-03 08:00:00,72.6,68.5,30.23,South,178,0.0,2.0,87,0.00,,,0.00,Wunderground v.1.15,2013-07-03 12:00:00,
2013-07-03 08:01:00,72.6,68.5,30.23,SW,224,3.0,4.0,87,0.00,,,0.00,Wunderground v.1.15,2013-07-03 12:01:00,
2013-07-03 08:02:00,72.5,68.4,30.23,South,185,3.0,7.0,87,0.00,,,0.00,Wunderground v.1.15,2013-07-03 12:02:00,
2013-07-03 08:03:00,72.6,68.5,30.23,South,178,0.0,4.0,87,0.00,,,0.00,Wunderground v.1.15,2013-07-03 12:03:00,
2013-07-03 08:04:00,72.5,68.4,30.23,West,261,3.0,8.0,87,0.00,,,0.00,Wunderground v.1.15,2013-07-03 12:04:00,
2013-07-03 08:05:00,72.7,68.6,30.23,SSW,198,5.0,5.0,87,0.00,,,0.00,Wunderground v.1.15,2013-07-03 12:05:00,
2013-07-03 08:08:00,72.5,68.4,30.23,SW,230,5.0,8.0,87,0.00,,,0.00,Wunderground v.1.15,2013-07-03 12:08:00,
2013-07-03 08:10:00,72.5,68.4,30.23,South,182,4.0,16.0,87,0.00,,,0.00,Wunderground v.1.15,2013-07-03 12:10:00,
2013-07-03 08:12:00,72.5,68.4,30.23,SSW,207,1.0,16.0,87,0.00,,,0.00,Wunderground v.1.15,2013-07-03 12:12:00,
2013-07-03 08:13:00,72.5,68.4,30.23,SSW,207,1.0,16.0,87,0.00,,,0.00,Wunderground v.1.15,2013-07-03 12:13:00,
2013-07-03 08:15:00,72.5,68.4,30.23,SSE,167,3.0,5.0,87,0.00,,,0.00,Wunderground v.1.15,2013-07-03 12:15:00,
2013-07-03 08:18:00,72.6,68.8,30.23,SSE,162,1.0,5.0,88,0.00,,,0.00,Wunderground v.1.15,2013-07-03 12:18:00,
2013-07-03 08:22:00,73.1,69.0,30.23,West,259,0.0,6.0,87,0.00,,,0.00,Wunderground v.1.15,2013-07-03 12:22:00,
2013-07-03 08:23:00,73.1,69.0,30.23,West,259,0.0,6.0,87,0.00,,,0.00,Wunderground v.1.15,2013-07-03 12:23:00,
2013-07-03 08:24:00,72.7,68.6,30.23,SSW,211,3.0,3.0,87,0.00,,,0.00,Wunderground v.1.15,2013-07-03 12:24:00,
2013-07-03 08:25:00,72.6,68.5,30.23,South,175,2.0,4.0,87,0.00,,,0.00,Wunderground v.1.15,2013-07-03 12:25:00,
2013-07-03 08:26:00,72.6,68.5,30.23,South,178,1.0,4.0,87,0.00,,,0.00,Wunderground v.1.15,2013-07-03 12:26:00,
2013-07-03 08:27:00,73.1,69.0,30.23,SW,225,4.0,6.0,87,0.00,,,0.00,Wunderground v.1.15,2013-07-03 12:27:00,
2013-07-03 08:28:00,72.6,68.5,30.23,South,173,6.0,6.0,87,0.00,,,0.00,Wunderground v.1.15,2013-07-03 12:28:00,
2013-07-03 08:30:00,73.2,69.1,30.23,SSW,211,2.0,3.0,87,0.00,,,0.00,Wunderground v.1.15,2013-07-03 12:30:00,
2013-07-03 08:31:00,72.7,68.6,30.23,SSW,206,4.0,6.0,87,0.00,,,0.00,Wunderground v.1.15,2013-07-03 12:31:00,
2013-07-03 08:32:00,72.7,68.6,30.23,SW,219,1.0,6.0,87,0.00,,,0.00,Wunderground v.1.15,2013-07-03 12:32:00,
2013-07-03 08:34:00,72.7,68.6,30.23,SSW,199,0.0,6.0,87,0.00,,,0.00,Wunderground v.1.15,2013-07-03 12:34:00,
2013-07-03 08:35:00,73.3,69.2,30.23,WSW,246,8.0,8.0,87,0.00,,,0.00,Wunderground v.1.15,2013-07-03 12:35:00,
2013-07-03 08:36:00,72.8,68.7,30.23,SW,224,3.0,6.0,87,0.00,,,0.00,Wunderground v.1.15,2013-07-03 12:36:00,
2013-07-03 08:37:00,72.8,68.7,30.23,SSW,205,2.0,6.0,87,0.00,,,0.00,Wunderground v.1.15,2013-07-03 12:37:00,
2013-07-03 08:38:00,72.8,68.7,30.23,SSW,203,2.0,6.0,87,0.00,,,0.00,Wunderground v.1.15,2013-07-03 12:38:00,
2013-07-03 08:39:00,72.8,68.7,30.23,South,182,1.0,6.0,87,0.00,,,0.00,Wunderground v.1.15,2013-07-03 12:39:00,
2013-07-03 08:43:00,73.0,68.9,30.23,SSE,164,6.0,7.0,87,0.00,,,0.00,Wunderground v.1.15,2013-07-03 12:43:00,
2013-07-03 08:44:00,73.0,68.9,30.23,South,191,4.0,5.0,87,0.00,,,0.00,Wunderground v.1.15,2013-07-03 12:44:00,
2013-07-03 08:48:00,73.1,69.0,30.23,SW,215,2.0,6.0,87,0.00,,,0.00,Wunderground v.1.15,2013-07-03 12:48:00,
2013-07-03 08:49:00,73.1,69.0,30.23,West,265,4.0,6.0,87,0.00,,,0.00,Wunderground v.1.15,2013-07-03 12:49:00,
2013-07-03 08:50:00,73.1,69.0,30.23,West,262,4.0,6.0,87,0.00,,,0.00,Wunderground v.1.15,2013-07-03 12:50:00,
2013-07-03 08:54:00,73.2,69.1,30.23,SSW,211,2.0,3.0,87,0.00,,,0.00,Wunderground v.1.15,2013-07-03 12:54:00,
2013-07-03 08:55:00,73.3,69.2,30.24,West,273,4.0,7.0,87,0.00,,,0.00,Wunderground v.1.15,2013-07-03 12:55:00,
2013-07-03 08:59:00,73.3,68.9,30.23,WSW,254,4.0,8.0,86,0.00,,,0.00,Wunderground v.1.15,2013-07-03 12:59:00,
2013-07-03 09:00:00,73.3,68.9,30.23,WSW,255,3.0,8.0,86,0.00,,,0.00,Wunderground v.1.15,2013-07-03 13:00:00,
2013-07-03 09:01:00,75.5,70.3,30.23,SSW,209,7.0,7.0,84,0.00,,,0.00,Wunderground v.1.15,2013-07-03 13:01:00,
2013-07-03 09:02:00,75.5,70.0,30.23,SE,144,2.0,7.0,83,0.00,,,0.00,Wunderground v.1.15,2013-07-03 13:02:00,
2013-07-03 09:04:00,75.5,70.3,30.23,SSW,212,3.0,7.0,84,0.00,,,0.00,Wunderground v.1.15,2013-07-03 13:04:00,
2013-07-03 09:05:00,73.8,69.3,30.23,WSW,241,6.0,8.0,86,0.00,,,0.00,Wunderground v.1.15,2013-07-03 13:05:00,
2013-07-03 09:06:00,75.5,70.0,30.23,WSW,239,9.0,9.0,83,0.00,,,0.00,Wunderground v.1.15,2013-07-03 13:06:00,
2013-07-03 09:07:00,75.4,69.9,30.23,West,262,2.0,9.0,83,0.00,,,0.00,Wunderground v.1.15,2013-07-03 13:07:00,
2013-07-03 09:08:00,75.4,70.2,30.23,WSW,238,4.0,9.0,84,0.00,,,0.00,Wunderground v.1.15,2013-07-03 13:08:00,
2013-07-03 09:09:00,75.4,70.2,30.23,SSW,211,1.0,9.0,84,0.00,,,0.00,Wunderground v.1.15,2013-07-03 13:09:00,
2013-07-03 09:10:00,74.7,70.2,30.23,West,278,6.0,9.0,86,0.00,,,0.00,Wunderground v.1.15,2013-07-03 13:10:00,
2013-07-03 09:11:00,75.6,70.4,30.23,SSE,161,6.0,6.0,84,0.00,,,0.00,Wunderground v.1.15,2013-07-03 13:11:00,
2013-07-03 09:12:00,75.6,70.4,30.23,SSW,205,4.0,9.0,84,0.00,,,0.00,Wunderground v.1.15,2013-07-03 13:12:00,
2013-07-03 09:13:00,75.6,70.4,30.23,WSW,238,3.0,9.0,84,0.00,,,0.00,Wunderground v.1.15,2013-07-03 13:13:00,
2013-07-03 09:14:00,75.6,70.4,30.23,WSW,238,0.0,9.0,84,0.00,,,0.00,Wunderground v.1.15,2013-07-03 13:14:00,
2013-07-03 09:15:00,75.5,70.3,30.23,NW,308,2.0,4.0,84,0.00,,,0.00,Wunderground v.1.15,2013-07-03 13:15:00,
2013-07-03 09:16:00,75.6,70.4,30.22,WNW,282,1.0,9.0,84,0.00,,,0.00,Wunderground v.1.15,2013-07-03 13:16:00,
2013-07-03 09:17:00,75.6,70.4,30.23,SW,229,4.0,4.0,84,0.00,,,0.00,Wunderground v.1.15,2013-07-03 13:17:00,
2013-07-03 09:19:00,75.6,70.1,30.23,West,260,9.0,13.0,83,0.00,,,0.00,Wunderground v.1.15,2013-07-03 13:19:00,
2013-07-03 09:20:00,75.6,70.1,30.23,South,191,5.0,7.0,83,0.00,,,0.00,Wunderground v.1.15,2013-07-03 13:20:00,
2013-07-03 09:21:00,75.5,70.0,30.23,SSW,213,2.0,7.0,83,0.00,,,0.00,Wunderground v.1.15,2013-07-03 13:21:00,
2013-07-03 09:22:00,75.5,70.0,30.23,SSW,201,5.0,10.0,83,0.00,,,0.00,Wunderground v.1.15,2013-07-03 13:22:00,
2013-07-03 09:24:00,75.4,70.2,30.23,SSW,209,4.0,4.0,84,0.00,,,0.00,Wunderground v.1.15,2013-07-03 13:24:00,
2013-07-03 09:25:00,75.5,70.0,30.23,SW,214,5.0,7.0,83,0.00,,,0.00,Wunderground v.1.15,2013-07-03 13:25:00,
2013-07-03 09:26:00,75.4,70.2,30.23,SW,229,4.0,6.0,84,0.00,,,0.00,Wunderground v.1.15,2013-07-03 13:26:00,
2013-07-03 09:27:00,75.5,70.3,30.23,SSW,212,3.0,7.0,84,0.00,,,0.00,Wunderground v.1.15,2013-07-03 13:27:00,
2013-07-03 09:28:00,75.4,70.2,30.23,WSW,238,1.0,6.0,84,0.00,,,0.00,Wunderground v.1.15,2013-07-03 13:28:00,
2013-07-03 09:29:00,75.4,70.2,30.23,SW,217,2.0,6.0,84,0.00,,,0.00,Wunderground v.1.15,2013-07-03 13:29:00,
2013-07-03 09:30:00,75.4,69.9,30.23,ESE,102,3.0,9.0,83,0.00,,,0.00,Wunderground v.1.15,2013-07-03 13:30:00,
2013-07-03 09:32:00,75.4,70.2,30.23,SSW,211,1.0,9.0,84,0.00,,,0.00,Wunderground v.1.15,2013-07-03 13:32:00,
2013-07-03 09:34:00,75.5,70.3,30.23,SSW,202,1.0,4.0,84,0.00,,,0.00,Wunderground v.1.15,2013-07-03 13:34:00,
2013-07-03 09:35:00,75.6,70.4,30.23,SSW,205,3.0,9.0,84,0.00,,,0.00,Wunderground v.1.15,2013-07-03 13:35:00,
2013-07-03 09:38:00,75.6,70.4,30.22,WNW,282,1.0,9.0,84,0.00,,,0.00,Wunderground v.1.15,2013-07-03 13:38:00,
2013-07-03 09:42:00,75.6,70.4,30.23,WSW,252,4.0,13.0,84,0.00,,,0.00,Wunderground v.1.15,2013-07-03 13:42:00,
2013-07-03 09:43:00,75.5,70.0,30.23,South,190,4.0,4.0,83,0.00,,,0.00,Wunderground v.1.15,2013-07-03 13:43:00,
2013-07-03 09:45:00,75.6,70.4,30.23,SSE,165,1.0,5.0,84,0.00,,,0.00,Wunderground v.1.15,2013-07-03 13:45:00,
2013-07-03 09:46:00,75.6,70.4,30.23,SSW,203,3.0,5.0,84,0.00,,,0.00,Wunderground v.1.15,2013-07-03 13:46:00,
2013-07-03 09:48:00,75.5,70.3,30.23,SW,234,2.0,5.0,84,0.00,,,0.00,Wunderground v.1.15,2013-07-03 13:48:00,
2013-07-03 09:49:00,75.4,70.2,30.23,SW,215,4.0,6.0,84,0.00,,,0.00,Wunderground v.1.15,2013-07-03 13:49:00,
2013-07-03 09:50:00,75.5,70.3,30.23,SW,230,2.0,3.0,84,0.00,,,0.00,Wunderground v.1.15,2013-07-03 13:50:00,
2013-07-03 09:51:00,75.4,70.2,30.23,SW,232,3.0,3.0,84,0.00,,,0.00,Wunderground v.1.15,2013-07-03 13:51:00,
2013-07-03 09:52:00,75.4,70.2,30.23,West,259,4.0,6.0,84,0.00,,,0.00,Wunderground v.1.15,2013-07-03 13:52:00,
2013-07-03 09:53:00,75.4,70.2,30.23,SW,215,4.0,4.0,84,0.00,,,0.00,Wunderground v.1.15,2013-07-03 13:53:00,
2013-07-03 09:54:00,75.4,70.2,30.23,WSW,249,3.0,7.0,84,0.00,,,0.00,Wunderground v.1.15,2013-07-03 13:54:00,
2013-07-03 09:55:00,75.4,70.2,30.23,SSW,213,2.0,4.0,84,0.00,,,0.00,Wunderground v.1.15,2013-07-03 13:55:00,
2013-07-03 09:56:00,75.4,70.2,30.23,SSW,213,1.0,4.0,84,0.00,,,0.00,Wunderground v.1.15,2013-07-03 13:56:00,
2013-07-03 09:57:00,75.4,70.2,30.23,SSW,213,1.0,4.0,84,0.00,,,0.00,Wunderground v.1.15,2013-07-03 13:57:00,
2013-07-03 09:58:00,75.4,70.6,30.23,SSW,213,0.0,4.0,85,0.00,,,0.00,Wunderground v.1.15,2013-07-03 13:58:00,
2013-07-03 09:59:00,75.4,70.2,30.23,SSW,196,2.0,7.0,84,0.00,,,0.00,Wunderground v.1.15,2013-07-03 13:59:00,
2013-07-03 10:00:00,75.3,70.1,30.23,SSW,213,0.0,2.0,84,0.00,,,0.00,Wunderground v.1.15,2013-07-03 14:00:00,
2013-07-03 10:02:00,75.4,70.2,30.23,SW,215,1.0,7.0,84,0.00,,,0.00,Wunderground v.1.15,2013-07-03 14:02:00,
2013-07-03 10:03:00,75.6,71.1,30.23,South,185,2.0,4.0,86,0.00,,,0.00,Wunderground v.1.15,2013-07-03 14:03:00,
2013-07-03 10:05:00,75.6,70.4,30.23,SW,215,0.0,3.0,84,0.00,,,0.00,Wunderground v.1.15,2013-07-03 14:05:00,
2013-07-03 10:06:00,75.6,70.4,30.23,SW,227,3.0,5.0,84,0.00,,,0.00,Wunderground v.1.15,2013-07-03 14:06:00,
2013-07-03 10:07:00,75.6,70.4,30.23,SSW,204,2.0,5.0,84,0.00,,,0.00,Wunderground v.1.15,2013-07-03 14:07:00,
2013-07-03 10:08:00,75.6,70.4,30.23,SW,228,1.0,5.0,84,0.00,,,0.00,Wunderground v.1.15,2013-07-03 14:08:00,
2013-07-03 10:09:00,75.7,70.5,30.23,SW,228,0.0,5.0,84,0.00,,,0.00,Wunderground v.1.15,2013-07-03 14:09:00,
2013-07-03 10:10:00,75.6,70.4,30.23,SW,234,3.0,5.0,84,0.00,,,0.00,Wunderground v.1.15,2013-07-03 14:10:00,
2013-07-03 10:11:00,75.8,70.6,30.23,SW,218,6.0,6.0,84,0.00,,,0.00,Wunderground v.1.15,2013-07-03 14:11:00,
2013-07-03 10:12:00,75.5,70.3,30.23,SW,234,1.0,5.0,84,0.00,,,0.00,Wunderground v.1.15,2013-07-03 14:12:00,
2013-07-03 10:13:00,75.8,70.6,30.23,SW,219,0.0,6.0,84,0.00,,,0.00,Wunderground v.1.15,2013-07-03 14:13:00,
2013-07-03 10:14:00,75.9,70.7,30.23,SW,231,5.0,6.0,84,0.00,,,0.00,Wunderground v.1.15,2013-07-03 14:14:00,
2013-07-03 10:16:00,75.4,70.2,30.23,SW,215,4.0,4.0,84,0.00,,,0.00,Wunderground v.1.15,2013-07-03 14:16:00,
2013-07-03 10:17:00,76.0,70.8,30.23,South,190,2.0,7.0,84,0.00,,,0.00,Wunderground v.1.15,2013-07-03 14:17:00,
2013-07-03 10:18:00,75.4,70.2,30.23,SSW,213,2.0,4.0,84,0.00,,,0.00,Wunderground v.1.15,2013-07-03 14:18:00,
2013-07-03 10:19:00,76.1,70.9,30.23,SW,220,1.0,7.0,84,0.00,,,0.00,Wunderground v.1.15,2013-07-03 14:19:00,
2013-07-03 10:20:00,76.2,70.7,30.23,SSE,160,2.0,2.0,83,0.00,,,0.00,Wunderground v.1.15,2013-07-03 14:20:00,
2013-07-03 10:21:00,75.4,70.6,30.23,SSW,213,2.0,4.0,85,0.00,,,0.00,Wunderground v.1.15,2013-07-03 14:21:00,
2013-07-03 10:22:00,75.3,70.5,30.23,SSW,213,1.0,4.0,85,0.00,,,0.00,Wunderground v.1.15,2013-07-03 14:22:00,
2013-07-03 10:23:00,75.3,70.5,30.23,SSW,213,0.0,4.0,85,0.00,,,0.00,Wunderground v.1.15,2013-07-03 14:23:00,
2013-07-03 10:24:00,76.5,71.3,30.23,South,188,3.0,4.0,84,0.00,,,0.00,Wunderground v.1.15,2013-07-03 14:24:00,
2013-07-03 10:26:00,76.6,71.0,30.23,SSW,193,2.0,4.0,83,0.00,,,0.00,Wunderground v.1.15,2013-07-03 14:26:00,
2013-07-03 10:27:00,75.6,71.1,30.23,South,180,2.0,4.0,86,0.00,,,0.00,Wunderground v.1.15,2013-07-03 14:27:00,
2013-07-03 10:28:00,75.7,70.5,30.23,SW,215,2.0,4.0,84,0.00,,,0.00,Wunderground v.1.15,2013-07-03 14:28:00,
2013-07-03 10:29:00,76.5,70.9,30.23,WSW,245,4.0,9.0,83,0.00,,,0.00,Wunderground v.1.15,2013-07-03 14:29:00,
2013-07-03 10:30:00,76.5,70.9,30.23,West,266,2.0,2.0,83,0.00,,,0.00,Wunderground v.1.15,2013-07-03 14:30:00,
2013-07-03 10:32:00,75.7,70.5,30.23,SW,228,0.0,5.0,84,0.00,,,0.00,Wunderground v.1.15,2013-07-03 14:32:00,
2013-07-03 10:33:00,75.7,70.5,30.23,South,184,2.0,2.0,84,0.00,,,0.00,Wunderground v.1.15,2013-07-03 14:33:00,
2013-07-03 10:34:00,76.4,70.9,30.23,SW,223,3.0,6.0,83,0.00,,,0.00,Wunderground v.1.15,2013-07-03 14:34:00,
2013-07-03 10:35:00,76.4,70.9,30.23,SSW,200,5.0,6.0,83,0.00,,,0.00,Wunderground v.1.15,2013-07-03 14:35:00,
2013-07-03 10:36:00,76.4,70.9,30.23,SW,223,4.0,6.0,83,0.00,,,0.00,Wunderground v.1.15,2013-07-03 14:36:00,
2013-07-03 10:37:00,75.9,70.7,30.23,SW,219,1.0,6.0,84,0.00,,,0.00,Wunderground v.1.15,2013-07-03 14:37:00,
2013-07-03 10:38:00,76.4,70.9,30.23,SW,232,5.0,6.0,83,0.00,,,0.00,Wunderground v.1.15,2013-07-03 14:38:00,
2013-07-03 10:39:00,76.0,70.8,30.23,SW,224,2.0,7.0,84,0.00,,,0.00,Wunderground v.1.15,2013-07-03 14:39:00,
2013-07-03 10:40:00,76.5,70.9,30.23,WSW,238,1.0,3.0,83,0.00,,,0.00,Wunderground v.1.15,2013-07-03 14:40:00,
2013-07-03 10:41:00,76.5,70.9,30.23,WSW,238,1.0,3.0,83,0.00,,,0.00,Wunderground v.1.15,2013-07-03 14:41:00,
2013-07-03 10:42:00,76.1,70.9,30.23,SW,220,1.0,7.0,84,0.00,,,0.00,Wunderground v.1.15,2013-07-03 14:42:00,
2013-07-03 10:43:00,76.6,71.0,30.23,SW,220,2.0,6.0,83,0.00,,,0.00,Wunderground v.1.15,2013-07-03 14:43:00,
2013-07-03 10:44:00,76.7,71.1,30.23,WNW,300,4.0,10.0,83,0.00,,,0.00,Wunderground v.1.15,2013-07-03 14:44:00,
2013-07-03 10:45:00,76.3,71.1,30.23,SSE,160,1.0,2.0,84,0.00,,,0.00,Wunderground v.1.15,2013-07-03 14:45:00,
2013-07-03 10:46:00,76.8,70.9,30.23,SSW,200,1.0,10.0,82,0.00,,,0.00,Wunderground v.1.15,2013-07-03 14:46:00,
2013-07-03 10:47:00,76.5,71.3,30.23,South,188,2.0,4.0,84,0.00,,,0.00,Wunderground v.1.15,2013-07-03 14:47:00,
2013-07-03 10:48:00,76.9,71.0,30.23,West,259,1.0,10.0,82,0.00,,,0.00,Wunderground v.1.15,2013-07-03 14:48:00,
2013-07-03 10:49:00,77.0,71.1,30.23,SSW,209,1.0,10.0,82,0.00,,,0.00,Wunderground v.1.15,2013-07-03 14:49:00,
2013-07-03 10:50:00,76.6,71.0,30.23,SSW,193,2.0,4.0,83,0.00,,,0.00,Wunderground v.1.15,2013-07-03 14:50:00,
2013-07-03 10:52:00,77.4,71.5,30.23,SW,226,5.0,6.0,82,0.00,,,0.00,Wunderground v.1.15,2013-07-03 14:52:00,
2013-07-03 10:53:00,76.5,70.9,30.23,WSW,248,5.0,9.0,83,0.00,,,0.00,Wunderground v.1.15,2013-07-03 14:53:00,
2013-07-03 10:54:00,77.4,71.1,30.23,WSW,242,4.0,11.0,81,0.00,,,0.00,Wunderground v.1.15,2013-07-03 14:54:00,
2013-07-03 10:55:00,76.4,70.9,30.23,South,186,4.0,4.0,83,0.00,,,0.00,Wunderground v.1.15,2013-07-03 14:55:00,
2013-07-03 10:57:00,77.4,71.1,30.23,ENE,57,2.0,11.0,81,0.00,,,0.00,Wunderground v.1.15,2013-07-03 14:57:00,
2013-07-03 10:58:00,76.4,70.9,30.23,WSW,250,3.0,6.0,83,0.00,,,0.00,Wunderground v.1.15,2013-07-03 14:58:00,
2013-07-03 10:59:00,77.6,70.9,30.23,SW,217,5.0,11.0,80,0.00,,,0.00,Wunderground v.1.15,2013-07-03 14:59:00,
2013-07-03 11:00:00,76.4,70.9,30.23,WSW,238,4.0,6.0,83,0.00,,,0.00,Wunderground v.1.15,2013-07-03 15:00:00,
2013-07-03 11:02:00,77.7,71.0,30.23,SW,216,4.0,6.0,80,0.00,,,0.00,Wunderground v.1.15,2013-07-03 15:02:00,
2013-07-03 11:05:00,77.9,71.2,30.23,NNW,338,0.0,6.0,80,0.00,,,0.00,Wunderground v.1.15,2013-07-03 15:05:00,
2013-07-03 11:06:00,76.6,71.0,30.23,SW,220,2.0,6.0,83,0.00,,,0.00,Wunderground v.1.15,2013-07-03 15:06:00,
2013-07-03 11:07:00,76.7,71.1,30.23,West,271,4.0,10.0,83,0.00,,,0.00,Wunderground v.1.15,2013-07-03 15:07:00,
2013-07-03 11:08:00,78.4,71.3,30.23,WNW,292,4.0,6.0,79,0.00,,,0.00,Wunderground v.1.15,2013-07-03 15:08:00,
2013-07-03 11:09:00,78.5,71.4,30.23,SW,232,2.0,6.0,79,0.00,,,0.00,Wunderground v.1.15,2013-07-03 15:09:00,
2013-07-03 11:10:00,78.7,71.6,30.22,West,276,4.0,7.0,79,0.00,,,0.00,Wunderground v.1.15,2013-07-03 15:10:00,
2013-07-03 11:11:00,76.9,71.0,30.23,West,259,2.0,10.0,82,0.00,,,0.00,Wunderground v.1.15,2013-07-03 15:11:00,
2013-07-03 11:12:00,77.0,71.4,30.23,SSW,211,2.0,10.0,83,0.00,,,0.00,Wunderground v.1.15,2013-07-03 15:12:00,
2013-07-03 11:13:00,77.1,71.5,30.23,SSW,209,0.0,2.0,83,0.00,,,0.00,Wunderground v.1.15,2013-07-03 15:13:00,
2013-07-03 11:16:00,77.5,71.6,30.23,WSW,240,4.0,6.0,82,0.00,,,0.00,Wunderground v.1.15,2013-07-03 15:16:00,
2013-07-03 11:17:00,79.5,71.7,30.22,North,5,4.0,10.0,77,0.00,,,0.00,Wunderground v.1.15,2013-07-03 15:17:00,
2013-07-03 11:19:00,79.7,71.5,30.22,WSW,242,8.0,10.0,76,0.00,,,0.00,Wunderground v.1.15,2013-07-03 15:19:00,
2013-07-03 11:20:00,77.4,71.1,30.23,SW,229,5.0,11.0,81,0.00,,,0.00,Wunderground v.1.15,2013-07-03 15:20:00,
2013-07-03 11:22:00,77.5,70.8,30.23,NW,317,1.0,11.0,80,0.00,,,0.00,Wunderground v.1.15,2013-07-03 15:22:00,
2013-07-03 11:23:00,80.4,72.1,30.22,WSW,238,4.0,7.0,76,0.00,,,0.00,Wunderground v.1.15,2013-07-03 15:23:00,
2013-07-03 11:24:00,80.5,72.2,30.22,WSW,238,2.0,7.0,76,0.00,,,0.00,Wunderground v.1.15,2013-07-03 15:24:00,
2013-07-03 11:25:00,77.7,71.0,30.23,South,190,3.0,6.0,80,0.00,,,0.00,Wunderground v.1.15,2013-07-03 15:25:00,
2013-07-03 11:26:00,81.0,72.7,30.22,SW,227,6.0,7.0,76,0.00,,,0.00,Wunderground v.1.15,2013-07-03 15:26:00,
2013-07-03 11:27:00,77.7,71.0,30.23,SW,215,1.0,6.0,80,0.00,,,0.00,Wunderground v.1.15,2013-07-03 15:27:00,
2013-07-03 11:29:00,81.3,72.2,30.22,West,265,7.0,9.0,74,0.00,,,0.00,Wunderground v.1.15,2013-07-03 15:29:00,
2013-07-03 11:30:00,81.3,71.8,30.23,WSW,251,13.0,13.0,73,0.00,,,0.00,Wunderground v.1.15,2013-07-03 15:30:00,
2013-07-03 11:31:00,78.4,71.3,30.23,WSW,258,3.0,6.0,79,0.00,,,0.00,Wunderground v.1.15,2013-07-03 15:31:00,
2013-07-03 11:32:00,78.5,71.4,30.23,SW,233,3.0,6.0,79,0.00,,,0.00,Wunderground v.1.15,2013-07-03 15:32:00,
2013-07-03 11:33:00,81.4,71.1,30.22,SSW,207,4.0,13.0,71,0.00,,,0.00,Wunderground v.1.15,2013-07-03 15:33:00,
2013-07-03 11:34:00,81.5,71.6,30.22,West,271,8.0,13.0,72,0.00,,,0.00,Wunderground v.1.15,2013-07-03 15:34:00,
2013-07-03 11:35:00,81.6,71.3,30.22,WSW,241,3.0,13.0,71,0.00,,,0.00,Wunderground v.1.15,2013-07-03 15:35:00,
2013-07-03 11:36:00,81.6,71.3,30.22,West,281,9.0,16.0,71,0.00,,,0.00,Wunderground v.1.15,2013-07-03 15:36:00,
2013-07-03 11:37:00,79.1,71.6,30.22,WSW,254,3.0,7.0,78,0.00,,,0.00,Wunderground v.1.15,2013-07-03 15:37:00,
2013-07-03 11:38:00,79.2,71.7,30.22,SSW,192,5.0,10.0,78,0.00,,,0.00,Wunderground v.1.15,2013-07-03 15:38:00,
2013-07-03 11:40:00,81.4,71.5,30.22,SSW,210,8.0,8.0,72,0.00,,,0.00,Wunderground v.1.15,2013-07-03 15:40:00,
2013-07-03 11:41:00,79.6,71.8,30.22,NNW,335,3.0,10.0,77,0.00,,,0.00,Wunderground v.1.15,2013-07-03 15:41:00,
2013-07-03 11:42:00,81.6,71.7,30.22,SSW,202,2.0,11.0,72,0.00,,,0.00,Wunderground v.1.15,2013-07-03 15:42:00,
2013-07-03 11:43:00,79.8,71.9,30.22,WSW,253,4.0,10.0,77,0.00,,,0.00,Wunderground v.1.15,2013-07-03 15:43:00,
2013-07-03 11:44:00,82.1,71.8,30.22,SSW,198,4.0,11.0,71,0.00,,,0.00,Wunderground v.1.15,2013-07-03 15:44:00,
2013-07-03 11:46:00,80.3,72.0,30.22,SSW,209,3.0,7.0,76,0.00,,,0.00,Wunderground v.1.15,2013-07-03 15:46:00,
2013-07-03 11:48:00,80.8,72.5,30.22,SW,217,1.0,7.0,76,0.00,,,0.00,Wunderground v.1.15,2013-07-03 15:48:00,
2013-07-03 11:53:00,81.3,71.4,30.23,SSW,206,5.0,13.0,72,0.00,,,0.00,Wunderground v.1.15,2013-07-03 15:53:00,
2013-07-03 11:59:00,81.6,71.3,30.22,West,281,9.0,16.0,71,0.00,,,0.00,Wunderground v.1.15,2013-07-03 15:59:00,
2013-07-03 12:04:00,81.5,71.6,30.22,NNE,31,6.0,11.0,72,0.00,,,0.00,Wunderground v.1.15,2013-07-03 16:04:00,
2013-07-03 12:05:00,81.7,72.2,30.22,ESE,120,1.0,11.0,73,0.00,,,0.00,Wunderground v.1.15,2013-07-03 16:05:00,
2013-07-03 12:07:00,82.0,72.1,30.22,SW,215,6.0,11.0,72,0.00,,,0.00,Wunderground v.1.15,2013-07-03 16:07:00,
2013-07-03 12:10:00,82.3,71.5,30.22,SW,235,6.0,12.0,70,0.00,,,0.00,Wunderground v.1.15,2013-07-03 16:10:00,
2013-07-03 12:11:00,82.3,71.5,30.22,SSE,152,3.0,12.0,70,0.00,,,0.00,Wunderground v.1.15,2013-07-03 16:11:00,
2013-07-03 12:12:00,82.3,71.5,30.22,WNW,296,3.0,12.0,70,0.00,,,0.00,Wunderground v.1.15,2013-07-03 16:12:00,
2013-07-03 12:13:00,82.3,72.0,30.22,West,271,1.0,12.0,71,0.00,,,0.00,Wunderground v.1.15,2013-07-03 16:13:00,
2013-07-03 12:16:00,82.6,72.7,30.22,SSW,195,4.0,6.0,72,0.00,,,0.00,Wunderground v.1.15,2013-07-03 16:16:00,
2013-07-03 12:17:00,82.8,72.4,30.22,SSW,211,10.0,14.0,71,0.00,,,0.00,Wunderground v.1.15,2013-07-03 16:17:00,
2013-07-03 12:18:00,82.7,71.9,30.22,SW,222,8.0,14.0,70,0.00,,,0.00,Wunderground v.1.15,2013-07-03 16:18:00,
2013-07-03 12:21:00,82.5,71.7,30.22,South,188,3.0,14.0,70,0.00,,,0.00,Wunderground v.1.15,2013-07-03 16:21:00,
2013-07-03 12:22:00,82.7,71.9,30.22,SSW,206,11.0,14.0,70,0.00,,,0.00,Wunderground v.1.15,2013-07-03 16:22:00,
2013-07-03 12:23:00,82.7,71.5,30.22,SSW,195,10.0,14.0,69,0.00,,,0.00,Wunderground v.1.15,2013-07-03 16:23:00,
2013-07-03 12:26:00,82.5,71.7,30.22,South,188,1.0,9.0,70,0.00,,,0.00,Wunderground v.1.15,2013-07-03 16:26:00,
2013-07-03 12:28:00,82.6,71.8,30.22,South,191,3.0,12.0,70,0.00,,,0.00,Wunderground v.1.15,2013-07-03 16:28:00,
2013-07-03 12:32:00,82.7,71.9,30.22,West,261,4.0,12.0,70,0.00,,,0.00,Wunderground v.1.15,2013-07-03 16:32:00,
2013-07-03 12:33:00,82.7,71.9,30.21,SSE,168,5.0,6.0,70,0.00,,,0.00,Wunderground v.1.15,2013-07-03 16:33:00,
2013-07-03 12:34:00,82.9,72.1,30.22,SW,234,3.0,6.0,70,0.00,,,0.00,Wunderground v.1.15,2013-07-03 16:34:00,
2013-07-03 12:38:00,83.2,72.0,30.21,SSW,198,3.0,10.0,69,0.00,,,0.00,Wunderground v.1.15,2013-07-03 16:38:00,
2013-07-03 12:40:00,83.4,71.7,30.21,SSE,150,6.0,12.0,68,0.00,,,0.00,Wunderground v.1.15,2013-07-03 16:40:00,
2013-07-03 12:43:00,83.7,72.0,30.21,South,181,3.0,5.0,68,0.00,,,0.00,Wunderground v.1.15,2013-07-03 16:43:00,
2013-07-03 12:44:00,83.8,72.1,30.21,South,169,5.0,6.0,68,0.00,,,0.00,Wunderground v.1.15,2013-07-03 16:44:00,
2013-07-03 12:45:00,83.9,71.8,30.21,SSW,199,2.0,13.0,67,0.00,,,0.00,Wunderground v.1.15,2013-07-03 16:45:00,
2013-07-03 12:46:00,83.9,71.8,30.21,ENE,59,2.0,13.0,67,0.00,,,0.00,Wunderground v.1.15,2013-07-03 16:46:00,
2013-07-03 12:49:00,84.1,72.0,30.21,WSW,252,7.0,13.0,67,0.00,,,0.00,Wunderground v.1.15,2013-07-03 16:49:00,
2013-07-03 12:51:00,84.3,72.6,30.21,WNW,284,6.0,13.0,68,0.00,,,0.00,Wunderground v.1.15,2013-07-03 16:51:00,
2013-07-03 12:52:00,84.4,72.7,30.21,WSW,240,8.0,13.0,68,0.00,,,0.00,Wunderground v.1.15,2013-07-03 16:52:00,
2013-07-03 12:54:00,84.6,72.0,30.21,SSW,207,4.0,10.0,66,0.00,,,0.00,Wunderground v.1.15,2013-07-03 16:54:00,
2013-07-03 12:55:00,84.6,72.0,30.21,WSW,247,13.0,15.0,66,0.00,,,0.00,Wunderground v.1.15,2013-07-03 16:55:00,
2013-07-03 12:57:00,84.4,71.8,30.21,ESE,107,4.0,15.0,66,0.00,,,0.00,Wunderground v.1.15,2013-07-03 16:57:00,
2013-07-03 13:00:00,84.4,71.8,30.21,West,261,9.0,15.0,66,0.00,,,0.00,Wunderground v.1.15,2013-07-03 17:00:00,
2013-07-03 13:02:00,84.4,71.8,30.21,WSW,245,9.0,15.0,66,0.00,,,0.00,Wunderground v.1.15,2013-07-03 17:02:00,
2013-07-03 13:04:00,84.1,71.5,30.21,SE,133,2.0,6.0,66,0.00,,,0.00,Wunderground v.1.15,2013-07-03 17:04:00,
2013-07-03 13:05:00,84.1,72.0,30.21,North,355,2.0,6.0,67,0.00,,,0.00,Wunderground v.1.15,2013-07-03 17:05:00,
2013-07-03 13:07:00,84.2,72.0,30.21,SSE,167,8.0,8.0,67,0.00,,,0.00,Wunderground v.1.15,2013-07-03 17:07:00,
2013-07-03 13:08:00,84.2,72.0,30.21,South,176,3.0,8.0,67,0.00,,,0.00,Wunderground v.1.15,2013-07-03 17:08:00,
2013-07-03 13:09:00,83.9,71.8,30.21,SW,232,2.0,9.0,67,0.00,,,0.00,Wunderground v.1.15,2013-07-03 17:09:00,
2013-07-03 13:11:00,83.8,71.7,30.21,WSW,254,5.0,9.0,67,0.00,,,0.00,Wunderground v.1.15,2013-07-03 17:11:00,
2013-07-03 13:13:00,83.7,72.0,30.21,NNE,26,0.0,4.0,68,0.00,,,0.00,Wunderground v.1.15,2013-07-03 17:13:00,
2013-07-03 13:14:00,83.8,72.5,30.21,SE,136,2.0,4.0,69,0.00,,,0.00,Wunderground v.1.15,2013-07-03 17:14:00,
2013-07-03 13:16:00,84.0,72.3,30.21,NW,317,3.0,8.0,68,0.00,,,0.00,Wunderground v.1.15,2013-07-03 17:16:00,
2013-07-03 13:18:00,84.0,71.4,30.20,SSE,157,10.0,15.0,66,0.00,,,0.00,Wunderground v.1.15,2013-07-03 17:18:00,
2013-07-03 13:20:00,83.9,71.3,30.20,WSW,257,2.0,15.0,66,0.00,,,0.00,Wunderground v.1.15,2013-07-03 17:20:00,
2013-07-03 13:22:00,83.6,71.5,30.20,North,355,6.0,15.0,67,0.00,,,0.00,Wunderground v.1.15,2013-07-03 17:22:00,
2013-07-03 13:24:00,83.5,71.8,30.20,South,190,0.0,4.0,68,0.00,,,0.00,Wunderground v.1.15,2013-07-03 17:24:00,
2013-07-03 13:25:00,83.6,71.9,30.20,WNW,296,5.0,5.0,68,0.00,,,0.00,Wunderground v.1.15,2013-07-03 17:25:00,
2013-07-03 13:26:00,83.6,72.3,30.20,SSW,195,2.0,5.0,69,0.00,,,0.00,Wunderground v.1.15,2013-07-03 17:26:00,
2013-07-03 13:27:00,83.7,72.4,30.20,SSW,194,5.0,7.0,69,0.00,,,0.00,Wunderground v.1.15,2013-07-03 17:27:00,
2013-07-03 13:29:00,83.6,71.5,30.20,SW,235,7.0,7.0,67,0.00,,,0.00,Wunderground v.1.15,2013-07-03 17:29:00,
2013-07-03 13:31:00,83.5,71.8,30.21,WSW,253,4.0,7.0,68,0.00,,,0.00,Wunderground v.1.15,2013-07-03 17:31:00,
2013-07-03 13:32:00,83.4,71.3,30.20,SSW,207,3.0,15.0,67,0.00,,,0.00,Wunderground v.1.15,2013-07-03 17:32:00,
2013-07-03 13:33:00,83.4,71.3,30.20,SSW,196,4.0,6.0,67,0.00,,,0.00,Wunderground v.1.15,2013-07-03 17:33:00,
2013-07-03 13:35:00,83.4,71.7,30.20,WSW,246,7.0,10.0,68,0.00,,,0.00,Wunderground v.1.15,2013-07-03 17:35:00,
2013-07-03 13:37:00,83.3,71.2,30.20,WSW,245,8.0,12.0,67,0.00,,,0.00,Wunderground v.1.15,2013-07-03 17:37:00,
2013-07-03 13:40:00,83.6,72.3,30.20,SW,223,7.0,12.0,69,0.00,,,0.00,Wunderground v.1.15,2013-07-03 17:40:00,
2013-07-03 13:41:00,83.8,72.5,30.20,SSW,202,5.0,12.0,69,0.00,,,0.00,Wunderground v.1.15,2013-07-03 17:41:00,
2013-07-03 13:42:00,83.8,72.1,30.20,WSW,242,5.0,13.0,68,0.00,,,0.00,Wunderground v.1.15,2013-07-03 17:42:00,
2013-07-03 13:45:00,84.1,72.0,30.20,SSW,203,5.0,12.0,67,0.00,,,0.00,Wunderground v.1.15,2013-07-03 17:45:00,
2013-07-03 13:46:00,84.0,71.9,30.20,SSW,196,6.0,12.0,67,0.00,,,0.00,Wunderground v.1.15,2013-07-03 17:46:00,
2013-07-03 13:47:00,83.9,71.8,30.20,SW,234,2.0,12.0,67,0.00,,,0.00,Wunderground v.1.15,2013-07-03 17:47:00,
2013-07-03 13:51:00,84.0,72.7,30.20,South,180,3.0,12.0,69,0.00,,,0.00,Wunderground v.1.15,2013-07-03 17:51:00,
2013-07-03 13:52:00,84.1,72.0,30.20,SSW,199,6.0,12.0,67,0.00,,,0.00,Wunderground v.1.15,2013-07-03 17:52:00,
2013-07-03 13:56:00,84.2,71.6,30.20,WSW,242,16.0,20.0,66,0.00,,,0.00,Wunderground v.1.15,2013-07-03 17:56:00,
2013-07-03 13:57:00,84.0,71.4,30.20,South,185,6.0,20.0,66,0.00,,,0.00,Wunderground v.1.15,2013-07-03 17:57:00,
2013-07-03 13:58:00,83.9,71.3,30.20,WSW,248,4.0,20.0,66,0.00,,,0.00,Wunderground v.1.15,2013-07-03 17:58:00,
2013-07-03 13:59:00,83.9,71.8,30.20,South,190,8.0,20.0,67,0.00,,,0.00,Wunderground v.1.15,2013-07-03 17:59:00,
2013-07-03 14:02:00,83.9,71.8,30.20,South,177,3.0,20.0,67,0.00,,,0.00,Wunderground v.1.15,2013-07-03 18:02:00,
2013-07-03 14:03:00,84.0,71.9,30.20,WNW,291,11.0,20.0,67,0.00,,,0.00,Wunderground v.1.15,2013-07-03 18:03:00,
2013-07-03 14:05:00,84.0,71.9,30.20,WSW,254,3.0,14.0,67,0.00,,,0.00,Wunderground v.1.15,2013-07-03 18:05:00,
2013-07-03 14:07:00,84.3,72.6,30.20,WSW,247,9.0,14.0,68,0.00,,,0.00,Wunderground v.1.15,2013-07-03 18:07:00,
2013-07-03 14:08:00,84.4,72.7,30.19,SSW,203,7.0,14.0,68,0.00,,,0.00,Wunderground v.1.15,2013-07-03 18:08:00,
2013-07-03 14:10:00,84.6,73.3,30.19,WSW,248,3.0,14.0,69,0.00,,,0.00,Wunderground v.1.15,2013-07-03 18:10:00,
2013-07-03 14:11:00,84.6,73.3,30.19,WSW,248,0.0,14.0,69,0.00,,,0.00,Wunderground v.1.15,2013-07-03 18:11:00,
2013-07-03 14:13:00,84.7,72.5,30.19,West,276,2.0,14.0,67,0.00,,,0.00,Wunderground v.1.15,2013-07-03 18:13:00,
2013-07-03 14:15:00,84.5,72.3,30.20,SSW,211,6.0,9.0,67,0.00,,,0.00,Wunderground v.1.15,2013-07-03 18:15:00,
2013-07-03 14:18:00,83.9,72.2,30.19,ESE,103,6.0,9.0,68,0.00,,,0.00,Wunderground v.1.15,2013-07-03 18:18:00,
2013-07-03 14:19:00,83.9,72.2,30.19,SW,214,4.0,9.0,68,0.00,,,0.00,Wunderground v.1.15,2013-07-03 18:19:00,
2013-07-03 14:22:00,83.7,72.0,30.19,SW,231,4.0,9.0,68,0.00,,,0.00,Wunderground v.1.15,2013-07-03 18:22:00,
2013-07-03 14:23:00,83.5,71.8,30.19,South,188,1.0,5.0,68,0.00,,,0.00,Wunderground v.1.15,2013-07-03 18:23:00,
2013-07-03 14:24:00,83.4,72.2,30.19,West,262,7.0,7.0,69,0.00,,,0.00,Wunderground v.1.15,2013-07-03 18:24:00,
2013-07-03 14:27:00,83.0,72.2,30.20,West,280,2.0,10.0,70,0.00,,,0.00,Wunderground v.1.15,2013-07-03 18:27:00,
2013-07-03 14:29:00,82.7,72.3,30.19,West,275,3.0,10.0,71,0.00,,,0.00,Wunderground v.1.15,2013-07-03 18:29:00,
2013-07-03 14:31:00,82.5,72.6,30.20,SW,227,2.0,10.0,72,0.00,,,0.00,Wunderground v.1.15,2013-07-03 18:31:00,
2013-07-03 14:32:00,82.6,72.7,30.19,SW,225,2.0,10.0,72,0.00,,,0.00,Wunderground v.1.15,2013-07-03 18:32:00,
2013-07-03 14:34:00,82.8,72.8,30.19,West,262,3.0,6.0,72,0.00,,,0.00,Wunderground v.1.15,2013-07-03 18:34:00,
2013-07-03 14:35:00,83.1,73.5,30.19,SSW,208,0.0,6.0,73,0.00,,,0.00,Wunderground v.1.15,2013-07-03 18:35:00,
2013-07-03 14:36:00,83.4,73.8,30.19,South,184,5.0,6.0,73,0.00,,,0.00,Wunderground v.1.15,2013-07-03 18:36:00,
2013-07-03 14:37:00,83.7,73.7,30.19,WSW,244,3.0,6.0,72,0.00,,,0.00,Wunderground v.1.15,2013-07-03 18:37:00,
2013-07-03 14:39:00,83.9,73.5,30.19,SSE,167,4.0,6.0,71,0.00,,,0.00,Wunderground v.1.15,2013-07-03 18:39:00,
2013-07-03 14:40:00,84.0,73.6,30.19,SE,136,3.0,6.0,71,0.00,,,0.00,Wunderground v.1.15,2013-07-03 18:40:00,
2013-07-03 14:41:00,84.0,73.2,30.19,SSW,200,5.0,8.0,70,0.00,,,0.00,Wunderground v.1.15,2013-07-03 18:41:00,
2013-07-03 14:43:00,83.9,73.1,30.19,SW,225,3.0,8.0,70,0.00,,,0.00,Wunderground v.1.15,2013-07-03 18:43:00,
2013-07-03 14:44:00,83.7,73.3,30.19,SW,223,5.0,5.0,71,0.00,,,0.00,Wunderground v.1.15,2013-07-03 18:44:00,
2013-07-03 14:45:00,83.7,73.7,30.19,South,175,2.0,5.0,72,0.00,,,0.00,Wunderground v.1.15,2013-07-03 18:45:00,
2013-07-03 14:47:00,83.5,73.1,30.19,WSW,245,5.0,6.0,71,0.00,,,0.00,Wunderground v.1.15,2013-07-03 18:47:00,
2013-07-03 14:48:00,83.4,73.0,30.19,SSW,210,4.0,6.0,71,0.00,,,0.00,Wunderground v.1.15,2013-07-03 18:48:00,
2013-07-03 14:49:00,83.2,72.8,30.19,SW,223,3.0,6.0,71,0.00,,,0.00,Wunderground v.1.15,2013-07-03 18:49:00,
2013-07-03 14:50:00,83.1,73.1,30.19,SE,128,3.0,6.0,72,0.00,,,0.00,Wunderground v.1.15,2013-07-03 18:50:00,
2013-07-03 14:52:00,82.9,72.9,30.19,SSW,192,0.0,8.0,72,0.00,,,0.00,Wunderground v.1.15,2013-07-03 18:52:00,
2013-07-03 14:54:00,82.8,73.3,30.19,SSW,192,2.0,4.0,73,0.00,,,0.00,Wunderground v.1.15,2013-07-03 18:54:00,
2013-07-03 14:55:00,82.6,73.5,30.19,WSW,251,4.0,6.0,74,0.00,,,0.00,Wunderground v.1.15,2013-07-03 18:55:00,
2013-07-03 14:58:00,82.2,73.5,30.19,SSW,194,3.0,7.0,75,0.00,,,0.00,Wunderground v.1.15,2013-07-03 18:58:00,
2013-07-03 14:59:00,82.1,73.4,30.20,SW,219,2.0,7.0,75,0.00,,,0.00,Wunderground v.1.15,2013-07-03 18:59:00,
2013-07-03 15:00:00,81.9,73.2,30.20,SSW,213,3.0,7.0,75,0.00,,,0.00,Wunderground v.1.15,2013-07-03 19:00:00,
2013-07-03 15:01:00,81.8,73.5,30.20,SSW,192,1.0,7.0,76,0.00,,,0.00,Wunderground v.1.15,2013-07-03 19:01:00,
2013-07-03 15:03:00,81.7,73.4,30.20,WSW,250,3.0,3.0,76,0.00,,,0.00,Wunderground v.1.15,2013-07-03 19:03:00,
2013-07-03 15:04:00,81.6,73.3,30.20,SW,225,2.0,6.0,76,0.00,,,0.00,Wunderground v.1.15,2013-07-03 19:04:00,
2013-07-03 15:05:00,81.6,73.3,30.19,SW,223,5.0,6.0,76,0.00,,,0.00,Wunderground v.1.15,2013-07-03 19:05:00,
2013-07-03 15:06:00,81.7,73.4,30.20,SW,231,4.0,6.0,76,0.00,,,0.00,Wunderground v.1.15,2013-07-03 19:06:00,
2013-07-03 15:08:00,81.8,73.5,30.19,SSW,211,1.0,10.0,76,0.00,,,0.00,Wunderground v.1.15,2013-07-03 19:08:00,
2013-07-03 15:10:00,82.0,73.3,30.19,South,190,4.0,10.0,75,0.00,,,0.00,Wunderground v.1.15,2013-07-03 19:10:00,
2013-07-03 15:12:00,82.1,73.8,30.19,South,184,4.0,10.0,76,0.00,,,0.00,Wunderground v.1.15,2013-07-03 19:12:00,
2013-07-03 15:13:00,82.2,73.9,30.19,SW,222,1.0,10.0,76,0.00,,,0.00,Wunderground v.1.15,2013-07-03 19:13:00,
2013-07-03 15:15:00,82.4,74.1,30.19,South,185,5.0,7.0,76,0.00,,,0.00,Wunderground v.1.15,2013-07-03 19:15:00,
2013-07-03 15:17:00,82.5,73.8,30.19,SSW,201,3.0,8.0,75,0.00,,,0.00,Wunderground v.1.15,2013-07-03 19:17:00,
2013-07-03 15:19:00,82.8,74.1,30.19,WSW,257,2.0,8.0,75,0.00,,,0.00,Wunderground v.1.15,2013-07-03 19:19:00,
2013-07-03 15:20:00,83.0,73.4,30.19,SSW,196,3.0,8.0,73,0.00,,,0.00,Wunderground v.1.15,2013-07-03 19:20:00,
2013-07-03 15:21:00,83.1,73.5,30.19,SSW,213,5.0,8.0,73,0.00,,,0.00,Wunderground v.1.15,2013-07-03 19:21:00,
2013-07-03 15:22:00,83.2,73.6,30.19,SSW,205,5.0,8.0,73,0.00,,,0.00,Wunderground v.1.15,2013-07-03 19:22:00,
2013-07-03 15:24:00,83.3,73.3,30.19,SSW,196,3.0,9.0,72,0.00,,,0.00,Wunderground v.1.15,2013-07-03 19:24:00,
2013-07-03 15:25:00,83.3,73.3,30.19,SSW,207,5.0,9.0,72,0.00,,,0.00,Wunderground v.1.15,2013-07-03 19:25:00,
2013-07-03 15:27:00,83.3,73.3,30.19,SW,218,5.0,9.0,72,0.00,,,0.00,Wunderground v.1.15,2013-07-03 19:27:00,
2013-07-03 15:28:00,83.2,72.8,30.19,NNW,342,3.0,9.0,71,0.00,,,0.00,Wunderground v.1.15,2013-07-03 19:28:00,
2013-07-03 15:30:00,83.0,72.6,30.19,SW,216,2.0,14.0,71,0.00,,,0.00,Wunderground v.1.15,2013-07-03 19:30:00,
2013-07-03 15:31:00,82.9,72.9,30.19,WSW,245,5.0,14.0,72,0.00,,,0.00,Wunderground v.1.15,2013-07-03 19:31:00,
2013-07-03 15:33:00,83.1,73.5,30.19,SW,227,10.0,10.0,73,0.00,,,0.00,Wunderground v.1.15,2013-07-03 19:33:00,
2013-07-03 15:35:00,83.4,73.4,30.19,SSW,211,4.0,12.0,72,0.00,,,0.00,Wunderground v.1.15,2013-07-03 19:35:00,
2013-07-03 15:36:00,83.3,72.9,30.18,SSE,157,6.0,12.0,71,0.00,,,0.00,Wunderground v.1.15,2013-07-03 19:36:00,
2013-07-03 15:38:00,83.4,72.6,30.18,SW,219,3.0,12.0,70,0.00,,,0.00,Wunderground v.1.15,2013-07-03 19:38:00,
2013-07-03 15:41:00,83.7,73.3,30.19,SSW,209,11.0,18.0,71,0.00,,,0.00,Wunderground v.1.15,2013-07-03 19:41:00,
2013-07-03 15:42:00,83.6,72.3,30.18,WNW,300,2.0,18.0,69,0.00,,,0.00,Wunderground v.1.15,2013-07-03 19:42:00,
2013-07-03 15:44:00,83.6,72.8,30.18,South,191,12.0,12.0,70,0.00,,,0.00,Wunderground v.1.15,2013-07-03 19:44:00,
2013-07-03 15:46:00,83.7,72.9,30.18,SW,224,11.0,13.0,70,0.00,,,0.00,Wunderground v.1.15,2013-07-03 19:46:00,
2013-07-03 15:49:00,83.7,72.4,30.18,West,276,4.0,14.0,69,0.00,,,0.00,Wunderground v.1.15,2013-07-03 19:49:00,
2013-07-03 15:51:00,83.8,72.5,30.18,South,184,2.0,14.0,69,0.00,,,0.00,Wunderground v.1.15,2013-07-03 19:51:00,
2013-07-03 15:54:00,84.2,72.9,30.17,SW,233,6.0,12.0,69,0.00,,,0.00,Wunderground v.1.15,2013-07-03 19:54:00,
2013-07-03 15:55:00,84.2,73.3,30.17,ENE,75,2.0,12.0,70,0.00,,,0.00,Wunderground v.1.15,2013-07-03 19:55:00,
2013-07-03 15:56:00,84.4,73.5,30.18,West,259,2.0,12.0,70,0.00,,,0.00,Wunderground v.1.15,2013-07-03 19:56:00,
2013-07-03 15:57:00,84.5,73.6,30.18,West,259,3.0,12.0,70,0.00,,,0.00,Wunderground v.1.15,2013-07-03 19:57:00,
2013-07-03 15:59:00,84.8,73.9,30.17,SW,217,1.0,12.0,70,0.00,,,0.00,Wunderground v.1.15,2013-07-03 19:59:00,
2013-07-03 16:01:00,84.8,73.1,30.17,WSW,241,8.0,12.0,68,0.00,,,0.00,Wunderground v.1.15,2013-07-03 20:01:00,
2013-07-03 16:02:00,84.7,73.0,30.17,South,178,4.0,12.0,68,0.00,,,0.00,Wunderground v.1.15,2013-07-03 20:02:00,
2013-07-03 16:05:00,84.7,73.4,30.17,ESE,114,4.0,11.0,69,0.00,,,0.00,Wunderground v.1.15,2013-07-03 20:05:00,
2013-07-03 16:06:00,84.7,73.0,30.17,SSW,209,13.0,13.0,68,0.00,,,0.00,Wunderground v.1.15,2013-07-03 20:06:00,
2013-07-03 16:07:00,84.5,72.3,30.17,SW,225,3.0,13.0,67,0.00,,,0.00,Wunderground v.1.15,2013-07-03 20:07:00,
2013-07-03 16:11:00,84.5,72.8,30.17,South,176,2.0,13.0,68,0.00,,,0.00,Wunderground v.1.15,2013-07-03 20:11:00,
2013-07-03 16:12:00,84.4,72.7,30.17,SSE,153,3.0,13.0,68,0.00,,,0.00,Wunderground v.1.15,2013-07-03 20:12:00,
2013-07-03 16:16:00,84.3,72.6,30.17,SW,222,6.0,11.0,68,0.00,,,0.00,Wunderground v.1.15,2013-07-03 20:16:00,
2013-07-03 16:17:00,84.3,73.0,30.17,SW,222,2.0,13.0,69,0.00,,,0.00,Wunderground v.1.15,2013-07-03 20:17:00,
2013-07-03 16:18:00,84.3,73.0,30.17,SW,215,3.0,13.0,69,0.00,,,0.00,Wunderground v.1.15,2013-07-03 20:18:00,
2013-07-03 16:22:00,84.4,73.1,30.17,WSW,251,4.0,13.0,69,0.00,,,0.00,Wunderground v.1.15,2013-07-03 20:22:00,
2013-07-03 16:23:00,84.3,73.0,30.17,SW,219,2.0,13.0,69,0.00,,,0.00,Wunderground v.1.15,2013-07-03 20:23:00,
2013-07-03 16:24:00,84.3,73.4,30.17,SW,221,3.0,5.0,70,0.00,,,0.00,Wunderground v.1.15,2013-07-03 20:24:00,
2013-07-03 16:27:00,84.3,73.4,30.17,SSE,159,4.0,7.0,70,0.00,,,0.00,Wunderground v.1.15,2013-07-03 20:27:00,
2013-07-03 16:29:00,84.3,73.4,30.17,SSW,194,6.0,9.0,70,0.00,,,0.00,Wunderground v.1.15,2013-07-03 20:29:00,
2013-07-03 16:33:00,84.1,73.7,30.17,SSW,206,0.0,9.0,71,0.00,,,0.00,Wunderground v.1.15,2013-07-03 20:33:00,
2013-07-03 16:34:00,84.0,73.2,30.17,WSW,243,8.0,8.0,70,0.00,,,0.00,Wunderground v.1.15,2013-07-03 20:34:00,
2013-07-03 16:35:00,84.0,73.2,30.17,West,263,8.0,8.0,70,0.00,,,0.00,Wunderground v.1.15,2013-07-03 20:35:00,
2013-07-03 16:38:00,83.4,73.0,30.17,WSW,255,9.0,9.0,71,0.00,,,0.00,Wunderground v.1.15,2013-07-03 20:38:00,
2013-07-03 16:41:00,83.2,72.8,30.17,WSW,251,5.0,13.0,71,0.00,,,0.00,Wunderground v.1.15,2013-07-03 20:41:00,
2013-07-03 16:44:00,83.4,73.0,30.17,SW,217,4.0,6.0,71,0.00,,,0.00,Wunderground v.1.15,2013-07-03 20:44:00,
2013-07-03 16:47:00,83.4,72.6,30.17,West,271,4.0,11.0,70,0.00,,,0.00,Wunderground v.1.15,2013-07-03 20:47:00,
2013-07-03 16:49:00,83.2,72.4,30.17,SSW,197,2.0,11.0,70,0.00,,,0.00,Wunderground v.1.15,2013-07-03 20:49:00,
2013-07-03 16:50:00,83.2,72.4,30.17,South,169,4.0,11.0,70,0.00,,,0.00,Wunderground v.1.15,2013-07-03 20:50:00,
2013-07-03 16:52:00,83.1,72.7,30.17,SW,217,6.0,11.0,71,0.00,,,0.00,Wunderground v.1.15,2013-07-03 20:52:00,
2013-07-03 16:53:00,83.0,72.6,30.17,SW,235,2.0,6.0,71,0.00,,,0.00,Wunderground v.1.15,2013-07-03 20:53:00,
2013-07-03 16:55:00,82.8,72.4,30.17,WNW,283,2.0,11.0,71,0.00,,,0.00,Wunderground v.1.15,2013-07-03 20:55:00,
2013-07-03 16:57:00,82.8,72.4,30.17,SW,236,6.0,11.0,71,0.00,,,0.00,Wunderground v.1.15,2013-07-03 20:57:00,
2013-07-03 16:59:00,82.7,72.3,30.17,WSW,240,9.0,11.0,71,0.00,,,0.00,Wunderground v.1.15,2013-07-03 20:59:00,
2013-07-03 17:00:00,82.8,72.4,30.17,SSW,212,8.0,12.0,71,0.00,,,0.00,Wunderground v.1.15,2013-07-03 21:00:00,
2013-07-03 17:01:00,82.8,72.4,30.17,SSE,166,5.0,12.0,71,0.00,,,0.00,Wunderground v.1.15,2013-07-03 21:01:00,
2013-07-03 17:02:00,82.9,72.5,30.17,WSW,238,9.0,12.0,71,0.00,,,0.00,Wunderground v.1.15,2013-07-03 21:02:00,
2013-07-03 17:05:00,82.9,72.5,30.17,SE,129,9.0,9.0,71,0.00,,,0.00,Wunderground v.1.15,2013-07-03 21:05:00,
2013-07-03 17:06:00,82.9,72.5,30.17,SW,229,4.0,9.0,71,0.00,,,0.00,Wunderground v.1.15,2013-07-03 21:06:00,
2013-07-03 17:07:00,83.1,72.7,30.17,SW,235,6.0,9.0,71,0.00,,,0.00,Wunderground v.1.15,2013-07-03 21:07:00,
2013-07-03 17:10:00,83.3,72.9,30.17,SSE,165,6.0,9.0,71,0.00,,,0.00,Wunderground v.1.15,2013-07-03 21:10:00,
2013-07-03 17:11:00,83.3,72.9,30.17,SSE,159,2.0,9.0,71,0.00,,,0.00,Wunderground v.1.15,2013-07-03 21:11:00,
2013-07-03 17:12:00,83.3,72.9,30.17,SSW,209,1.0,9.0,71,0.00,,,0.00,Wunderground v.1.15,2013-07-03 21:12:00,
2013-07-03 17:15:00,83.4,72.6,30.16,WSW,246,4.0,9.0,70,0.00,,,0.00,Wunderground v.1.15,2013-07-03 21:15:00,
2013-07-03 17:16:00,83.6,73.2,30.17,South,182,2.0,9.0,71,0.00,,,0.00,Wunderground v.1.15,2013-07-03 21:16:00,
2013-07-03 17:18:00,83.7,72.9,30.17,SW,229,1.0,9.0,70,0.00,,,0.00,Wunderground v.1.15,2013-07-03 21:18:00,
2013-07-03 17:20:00,83.9,73.1,30.17,SW,220,2.0,9.0,70,0.00,,,0.00,Wunderground v.1.15,2013-07-03 21:20:00,
2013-07-03 17:21:00,84.0,73.2,30.17,SSW,207,9.0,9.0,70,0.00,,,0.00,Wunderground v.1.15,2013-07-03 21:21:00,
2013-07-03 17:24:00,84.1,72.8,30.17,West,260,8.0,9.0,69,0.00,,,0.00,Wunderground v.1.15,2013-07-03 21:24:00,
2013-07-03 17:25:00,84.0,73.2,30.17,SW,227,2.0,10.0,70,0.00,,,0.00,Wunderground v.1.15,2013-07-03 21:25:00,
2013-07-03 17:27:00,84.1,73.3,30.16,SW,236,4.0,10.0,70,0.00,,,0.00,Wunderground v.1.15,2013-07-03 21:27:00,
2013-07-03 17:31:00,83.9,73.1,30.16,SSW,213,0.0,13.0,70,0.00,,,0.00,Wunderground v.1.15,2013-07-03 21:31:00,
2013-07-03 17:32:00,84.0,73.2,30.16,SSW,213,1.0,13.0,70,0.00,,,0.00,Wunderground v.1.15,2013-07-03 21:32:00,
2013-07-03 17:37:00,84.1,73.3,30.17,SSW,200,6.0,8.0,70,0.00,,,0.00,Wunderground v.1.15,2013-07-03 21:37:00,
2013-07-03 17:38:00,83.9,73.1,30.17,West,268,6.0,9.0,70,0.00,,,0.00,Wunderground v.1.15,2013-07-03 21:38:00,
2013-07-03 17:42:00,83.4,72.6,30.17,South,184,7.0,18.0,70,0.00,,,0.00,Wunderground v.1.15,2013-07-03 21:42:00,
2013-07-03 17:43:00,83.3,72.9,30.17,SW,227,5.0,18.0,71,0.00,,,0.00,Wunderground v.1.15,2013-07-03 21:43:00,
2013-07-03 17:47:00,83.1,72.7,30.17,SW,233,5.0,11.0,71,0.00,,,0.00,Wunderground v.1.15,2013-07-03 21:47:00,
2013-07-03 17:48:00,83.1,72.7,30.17,WSW,239,12.0,12.0,71,0.00,,,0.00,Wunderground v.1.15,2013-07-03 21:48:00,
2013-07-03 17:50:00,82.8,72.8,30.17,SSW,201,3.0,12.0,72,0.00,,,0.00,Wunderground v.1.15,2013-07-03 21:50:00,
2013-07-03 17:52:00,82.7,73.2,30.17,WSW,248,8.0,12.0,73,0.00,,,0.00,Wunderground v.1.15,2013-07-03 21:52:00,
2013-07-03 17:53:00,82.6,72.7,30.17,WSW,237,4.0,5.0,72,0.00,,,0.00,Wunderground v.1.15,2013-07-03 21:53:00,
2013-07-03 17:54:00,82.5,72.6,30.17,SW,218,4.0,5.0,72,0.00,,,0.00,Wunderground v.1.15,2013-07-03 21:54:00,
2013-07-03 17:55:00,82.4,72.9,30.17,South,174,1.0,5.0,73,0.00,,,0.00,Wunderground v.1.15,2013-07-03 21:55:00,
2013-07-03 17:58:00,82.4,72.9,30.17,South,175,3.0,5.0,73,0.00,,,0.00,Wunderground v.1.15,2013-07-03 21:58:00,
2013-07-03 17:59:00,82.3,72.8,30.17,WSW,237,3.0,6.0,73,0.00,,,0.00,Wunderground v.1.15,2013-07-03 21:59:00,
2013-07-03 18:00:00,82.3,72.8,30.17,South,180,4.0,7.0,73,0.00,,,0.00,Wunderground v.1.15,2013-07-03 22:00:00,
2013-07-03 18:04:00,82.2,72.7,30.17,SSE,148,4.0,8.0,73,0.00,,,0.00,Wunderground v.1.15,2013-07-03 22:04:00,
2013-07-03 18:05:00,82.2,72.7,30.17,SSW,202,6.0,11.0,73,0.00,,,0.00,Wunderground v.1.15,2013-07-03 22:05:00,
2013-07-03 18:07:00,82.2,72.7,30.17,South,175,8.0,11.0,73,0.00,,,0.00,Wunderground v.1.15,2013-07-03 22:07:00,
2013-07-03 18:09:00,82.3,73.2,30.17,SSW,198,4.0,11.0,74,0.00,,,0.00,Wunderground v.1.15,2013-07-03 22:09:00,
2013-07-03 18:11:00,82.3,72.8,30.17,SSW,193,9.0,11.0,73,0.00,,,0.00,Wunderground v.1.15,2013-07-03 22:11:00,
2013-07-03 18:12:00,82.3,72.8,30.17,SW,215,5.0,11.0,73,0.00,,,0.00,Wunderground v.1.15,2013-07-03 22:12:00,
2013-07-03 18:15:00,82.3,73.2,30.17,SW,224,5.0,6.0,74,0.00,,,0.00,Wunderground v.1.15,2013-07-03 22:15:00,
2013-07-03 18:16:00,82.3,73.2,30.17,SW,234,5.0,6.0,74,0.00,,,0.00,Wunderground v.1.15,2013-07-03 22:16:00,
2013-07-03 18:17:00,82.2,73.1,30.17,SW,217,2.0,6.0,74,0.00,,,0.00,Wunderground v.1.15,2013-07-03 22:17:00,
2013-07-03 18:18:00,82.2,73.1,30.17,SW,232,3.0,6.0,74,0.00,,,0.00,Wunderground v.1.15,2013-07-03 22:18:00,
2013-07-03 18:20:00,82.1,73.0,30.17,WSW,254,4.0,8.0,74,0.00,,,0.00,Wunderground v.1.15,2013-07-03 22:20:00,
2013-07-03 18:21:00,82.1,73.0,30.17,WSW,239,8.0,8.0,74,0.00,,,0.00,Wunderground v.1.15,2013-07-03 22:21:00,
2013-07-03 18:23:00,82.0,72.9,30.17,SW,217,1.0,8.0,74,0.00,,,0.00,Wunderground v.1.15,2013-07-03 22:23:00,
2013-07-03 18:25:00,82.2,73.1,30.17,SW,234,6.0,6.0,74,0.00,,,0.00,Wunderground v.1.15,2013-07-03 22:25:00,
2013-07-03 18:27:00,82.2,72.7,30.17,WSW,252,2.0,9.0,73,0.00,,,0.00,Wunderground v.1.15,2013-07-03 22:27:00,
2013-07-03 18:28:00,82.2,73.1,30.17,South,189,2.0,9.0,74,0.00,,,0.00,Wunderground v.1.15,2013-07-03 22:28:00,
2013-07-03 18:31:00,82.2,73.5,30.17,SW,219,4.0,9.0,75,0.00,,,0.00,Wunderground v.1.15,2013-07-03 22:31:00,
2013-07-03 18:32:00,82.1,73.0,30.17,WSW,250,7.0,11.0,74,0.00,,,0.00,Wunderground v.1.15,2013-07-03 22:32:00,
2013-07-03 18:36:00,81.8,73.1,30.17,SW,231,4.0,8.0,75,0.00,,,0.00,Wunderground v.1.15,2013-07-03 22:36:00,
2013-07-03 18:37:00,81.8,73.1,30.17,SW,224,4.0,8.0,75,0.00,,,0.00,Wunderground v.1.15,2013-07-03 22:37:00,
2013-07-03 18:38:00,81.7,73.0,30.17,SW,229,2.0,8.0,75,0.00,,,0.00,Wunderground v.1.15,2013-07-03 22:38:00,
2013-07-03 18:41:00,81.7,73.0,30.17,SSW,201,6.0,10.0,75,0.00,,,0.00,Wunderground v.1.15,2013-07-03 22:41:00,
2013-07-03 18:42:00,81.7,72.6,30.17,South,172,3.0,10.0,74,0.00,,,0.00,Wunderground v.1.15,2013-07-03 22:42:00,
2013-07-03 18:44:00,81.7,73.0,30.17,SE,126,5.0,7.0,75,0.00,,,0.00,Wunderground v.1.15,2013-07-03 22:44:00,
2013-07-03 18:46:00,81.7,73.0,30.17,SW,221,3.0,7.0,75,0.00,,,0.00,Wunderground v.1.15,2013-07-03 22:46:00,
2013-07-03 18:48:00,81.7,73.0,30.17,WSW,245,4.0,7.0,75,0.00,,,0.00,Wunderground v.1.15,2013-07-03 22:48:00,
2013-07-03 18:49:00,81.6,72.9,30.17,SSW,197,3.0,7.0,75,0.00,,,0.00,Wunderground v.1.15,2013-07-03 22:49:00,
2013-07-03 18:53:00,81.3,72.6,30.17,SSW,213,1.0,11.0,75,0.00,,,0.00,Wunderground v.1.15,2013-07-03 22:53:00,
2013-07-03 18:55:00,81.2,72.5,30.17,South,178,1.0,4.0,75,0.00,,,0.00,Wunderground v.1.15,2013-07-03 22:55:00,
2013-07-03 18:59:00,81.2,72.5,30.17,South,188,1.0,11.0,75,0.00,,,0.00,Wunderground v.1.15,2013-07-03 22:59:00,
2013-07-03 19:00:00,81.2,72.5,30.17,SSW,208,3.0,11.0,75,0.00,,,0.00,Wunderground v.1.15,2013-07-03 23:00:00,
2013-07-03 19:01:00,81.1,72.4,30.17,WSW,237,1.0,11.0,75,0.00,,,0.00,Wunderground v.1.15,2013-07-03 23:01:00,
2013-07-03 19:05:00,80.9,72.6,30.17,SSW,204,4.0,9.0,76,0.00,,,0.00,Wunderground v.1.15,2013-07-03 23:05:00,
2013-07-03 19:06:00,80.8,72.5,30.17,SSW,194,2.0,9.0,76,0.00,,,0.00,Wunderground v.1.15,2013-07-03 23:06:00,
2013-07-03 19:07:00,80.8,72.5,30.17,SSW,197,3.0,9.0,76,0.00,,,0.00,Wunderground v.1.15,2013-07-03 23:07:00,
2013-07-03 19:10:00,80.7,72.4,30.17,SW,232,4.0,9.0,76,0.00,,,0.00,Wunderground v.1.15,2013-07-03 23:10:00,
2013-07-03 19:12:00,80.5,72.2,30.17,SW,233,7.0,10.0,76,0.00,,,0.00,Wunderground v.1.15,2013-07-03 23:12:00,
2013-07-03 19:13:00,80.5,72.2,30.17,SW,217,2.0,10.0,76,0.00,,,0.00,Wunderground v.1.15,2013-07-03 23:13:00,
2013-07-03 19:16:00,80.5,72.6,30.17,SW,232,3.0,5.0,77,0.00,,,0.00,Wunderground v.1.15,2013-07-03 23:16:00,
2013-07-03 19:17:00,80.5,72.6,30.17,SW,233,2.0,5.0,77,0.00,,,0.00,Wunderground v.1.15,2013-07-03 23:17:00,
2013-07-03 19:18:00,80.6,72.7,30.17,SW,233,1.0,5.0,77,0.00,,,0.00,Wunderground v.1.15,2013-07-03 23:18:00,
2013-07-03 19:21:00,80.5,72.6,30.17,WSW,242,4.0,7.0,77,0.00,,,0.00,Wunderground v.1.15,2013-07-03 23:21:00,
2013-07-03 19:22:00,80.4,72.5,30.17,SSW,209,2.0,7.0,77,0.00,,,0.00,Wunderground v.1.15,2013-07-03 23:22:00,
2013-07-03 19:23:00,80.4,72.5,30.17,SSW,208,1.0,7.0,77,0.00,,,0.00,Wunderground v.1.15,2013-07-03 23:23:00,
2013-07-03 19:24:00,80.4,72.5,30.17,SSW,208,1.0,3.0,77,0.00,,,0.00,Wunderground v.1.15,2013-07-03 23:24:00,
2013-07-03 19:27:00,80.3,72.8,30.17,SSE,157,6.0,6.0,78,0.00,,,0.00,Wunderground v.1.15,2013-07-03 23:27:00,
2013-07-03 19:28:00,80.3,72.8,30.17,SSW,213,0.0,6.0,78,0.00,,,0.00,Wunderground v.1.15,2013-07-03 23:28:00,
2013-07-03 19:29:00,80.2,72.7,30.17,SSW,208,4.0,6.0,78,0.00,,,0.00,Wunderground v.1.15,2013-07-03 23:29:00,
2013-07-03 19:32:00,80.1,72.6,30.17,SE,145,5.0,6.0,78,0.00,,,0.00,Wunderground v.1.15,2013-07-03 23:32:00,
2013-07-03 19:33:00,80.0,72.5,30.17,SSW,198,2.0,6.0,78,0.00,,,0.00,Wunderground v.1.15,2013-07-03 23:33:00,
2013-07-03 19:34:00,79.9,72.4,30.17,South,180,7.0,7.0,78,0.00,,,0.00,Wunderground v.1.15,2013-07-03 23:34:00,
2013-07-03 19:38:00,79.6,72.5,30.17,SW,229,5.0,9.0,79,0.00,,,0.00,Wunderground v.1.15,2013-07-03 23:38:00,
2013-07-03 19:39:00,79.5,72.8,30.17,SSW,205,2.0,9.0,80,0.00,,,0.00,Wunderground v.1.15,2013-07-03 23:39:00,
2013-07-03 19:40:00,79.4,72.7,30.17,South,171,5.0,9.0,80,0.00,,,0.00,Wunderground v.1.15,2013-07-03 23:40:00,
2013-07-03 19:43:00,79.3,72.6,30.17,SSE,160,4.0,9.0,80,0.00,,,0.00,Wunderground v.1.15,2013-07-03 23:43:00,
2013-07-03 19:45:00,79.2,72.5,30.18,SSW,203,5.0,7.0,80,0.00,,,0.00,Wunderground v.1.15,2013-07-03 23:45:00,
2013-07-03 19:48:00,79.1,72.4,30.18,SW,217,4.0,7.0,80,0.00,,,0.00,Wunderground v.1.15,2013-07-03 23:48:00,
2013-07-03 19:49:00,79.0,72.3,30.18,South,183,3.0,7.0,80,0.00,,,0.00,Wunderground v.1.15,2013-07-03 23:49:00,
2013-07-03 19:50:00,78.9,72.2,30.18,WSW,252,8.0,10.0,80,0.00,,,0.00,Wunderground v.1.15,2013-07-03 23:50:00,
2013-07-03 19:51:00,78.9,72.6,30.18,SW,216,6.0,10.0,81,0.00,,,0.00,Wunderground v.1.15,2013-07-03 23:51:00,
2013-07-03 19:53:00,78.7,72.4,30.18,South,187,6.0,6.0,81,0.00,,,0.00,Wunderground v.1.15,2013-07-03 23:53:00,
2013-07-03 19:54:00,78.7,72.4,30.18,South,176,2.0,6.0,81,0.00,,,0.00,Wunderground v.1.15,2013-07-03 23:54:00,
2013-07-03 19:55:00,78.6,72.3,30.18,South,184,3.0,8.0,81,0.00,,,0.00,Wunderground v.1.15,2013-07-03 23:55:00,
2013-07-03 19:56:00,78.6,72.3,30.18,SW,217,9.0,9.0,81,0.00,,,0.00,Wunderground v.1.15,2013-07-03 23:56:00,
2013-07-03 19:59:00,78.4,72.1,30.18,SSW,194,4.0,12.0,81,0.00,,,0.00,Wunderground v.1.15,2013-07-03 23:59:00,
2013-07-03 20:00:00,78.4,72.1,30.18,South,175,1.0,12.0,81,0.00,,,0.00,Wunderground v.1.15,2013-07-04 00:00:00,
2013-07-03 20:01:00,78.3,72.0,30.18,SSW,194,2.0,12.0,81,0.00,,,0.00,Wunderground v.1.15,2013-07-04 00:01:00,
2013-07-03 20:04:00,78.2,71.9,30.18,South,188,4.0,10.0,81,0.00,,,0.00,Wunderground v.1.15,2013-07-04 00:04:00,
2013-07-03 20:05:00,78.2,71.9,30.18,SW,221,6.0,10.0,81,0.00,,,0.00,Wunderground v.1.15,2013-07-04 00:05:00,
2013-07-03 20:07:00,78.1,72.2,30.18,SE,132,4.0,10.0,82,0.00,,,0.00,Wunderground v.1.15,2013-07-04 00:07:00,
2013-07-03 20:08:00,78.1,72.2,30.18,SSW,197,4.0,10.0,82,0.00,,,0.00,Wunderground v.1.15,2013-07-04 00:08:00,
2013-07-03 20:10:00,78.1,72.2,30.18,SSW,199,0.0,10.0,82,0.00,,,0.00,Wunderground v.1.15,2013-07-04 00:10:00,
2013-07-03 20:13:00,78.0,72.1,30.18,SW,222,3.0,3.0,82,0.00,,,0.00,Wunderground v.1.15,2013-07-04 00:13:00,
2013-07-03 20:14:00,78.1,72.2,30.18,SW,222,2.0,3.0,82,0.00,,,0.00,Wunderground v.1.15,2013-07-04 00:14:00,
2013-07-03 20:15:00,78.0,72.1,30.18,South,178,2.0,3.0,82,0.00,,,0.00,Wunderground v.1.15,2013-07-04 00:15:00,
2013-07-03 20:19:00,77.8,71.9,30.18,South,184,3.0,9.0,82,0.00,,,0.00,Wunderground v.1.15,2013-07-04 00:19:00,
2013-07-03 20:20:00,77.7,72.1,30.19,South,175,8.0,9.0,83,0.00,,,0.00,Wunderground v.1.15,2013-07-04 00:20:00,
2013-07-03 20:24:00,77.6,72.0,30.19,South,176,2.0,4.0,83,0.00,,,0.00,Wunderground v.1.15,2013-07-04 00:24:00,
2013-07-03 20:26:00,77.5,71.9,30.19,South,177,2.0,5.0,83,0.00,,,0.00,Wunderground v.1.15,2013-07-04 00:26:00,
2013-07-03 20:27:00,77.5,71.9,30.19,SSW,202,1.0,6.0,83,0.00,,,0.00,Wunderground v.1.15,2013-07-04 00:27:00,
2013-07-03 20:29:00,77.4,71.8,30.19,SSW,202,2.0,6.0,83,0.00,,,0.00,Wunderground v.1.15,2013-07-04 00:29:00,
2013-07-03 20:32:00,77.3,71.7,30.19,SSE,154,7.0,8.0,83,0.00,,,0.00,Wunderground v.1.15,2013-07-04 00:32:00,
2013-07-03 20:34:00,77.2,71.6,30.19,SW,222,5.0,7.0,83,0.00,,,0.00,Wunderground v.1.15,2013-07-04 00:34:00,
2013-07-03 20:37:00,77.1,71.9,30.19,South,169,4.0,7.0,84,0.00,,,0.00,Wunderground v.1.15,2013-07-04 00:37:00,
2013-07-03 20:39:00,77.1,71.9,30.19,SSW,198,1.0,7.0,84,0.00,,,0.00,Wunderground v.1.15,2013-07-04 00:39:00,
2013-07-03 20:40:00,77.0,71.8,30.19,South,178,1.0,7.0,84,0.00,,,0.00,Wunderground v.1.15,2013-07-04 00:40:00,
2013-07-03 20:42:00,77.0,71.8,30.19,SE,146,3.0,7.0,84,0.00,,,0.00,Wunderground v.1.15,2013-07-04 00:42:00,
2013-07-03 20:43:00,76.9,71.7,30.19,SSE,166,5.0,5.0,84,0.00,,,0.00,Wunderground v.1.15,2013-07-04 00:43:00,
2013-07-03 20:46:00,76.8,71.6,30.19,SSW,213,6.0,7.0,84,0.00,,,0.00,Wunderground v.1.15,2013-07-04 00:46:00,
2013-07-03 20:47:00,76.8,71.6,30.19,SSW,192,4.0,13.0,84,0.00,,,0.00,Wunderground v.1.15,2013-07-04 00:47:00,
2013-07-03 20:50:00,76.6,71.4,30.19,WSW,248,5.0,13.0,84,0.00,,,0.00,Wunderground v.1.15,2013-07-04 00:50:00,
2013-07-03 20:51:00,76.6,71.4,30.19,SW,217,5.0,13.0,84,0.00,,,0.00,Wunderground v.1.15,2013-07-04 00:51:00,
2013-07-03 20:52:00,76.6,71.4,30.19,SSW,192,5.0,13.0,84,0.00,,,0.00,Wunderground v.1.15,2013-07-04 00:52:00,
2013-07-03 20:54:00,76.6,71.4,30.20,ESE,107,3.0,6.0,84,0.00,,,0.00,Wunderground v.1.15,2013-07-04 00:54:00,
2013-07-03 20:55:00,76.5,71.3,30.20,SW,236,9.0,9.0,84,0.00,,,0.00,Wunderground v.1.15,2013-07-04 00:55:00,
2013-07-03 20:56:00,76.5,71.3,30.20,WSW,256,5.0,10.0,84,0.00,,,0.00,Wunderground v.1.15,2013-07-04 00:56:00,
2013-07-03 20:57:00,76.5,71.3,30.20,South,190,6.0,14.0,84,0.00,,,0.00,Wunderground v.1.15,2013-07-04 00:57:00,
2013-07-03 20:59:00,76.5,71.3,30.20,SW,225,3.0,14.0,84,0.00,,,0.00,Wunderground v.1.15,2013-07-04 00:59:00,
2013-07-03 21:01:00,76.4,71.2,30.20,SW,230,5.0,14.0,84,0.00,,,0.00,Wunderground v.1.15,2013-07-04 01:01:00,
2013-07-03 21:02:00,76.4,71.2,30.20,SSW,203,2.0,14.0,84,0.00,,,0.00,Wunderground v.1.15,2013-07-04 01:02:00,
2013-07-03 21:04:00,76.3,71.1,30.20,SSW,194,2.0,7.0,84,0.00,,,0.00,Wunderground v.1.15,2013-07-04 01:04:00,
2013-07-03 21:07:00,76.2,71.0,30.20,SSW,196,1.0,9.0,84,0.00,,,0.00,Wunderground v.1.15,2013-07-04 01:07:00,
2013-07-03 21:08:00,76.2,71.0,30.20,WSW,248,1.0,9.0,84,0.00,,,0.00,Wunderground v.1.15,2013-07-04 01:08:00,
2013-07-03 21:09:00,76.2,71.0,30.20,SSW,198,5.0,9.0,84,0.00,,,0.00,Wunderground v.1.15,2013-07-04 01:09:00,
2013-07-03 21:12:00,76.1,70.9,30.21,SSW,207,4.0,9.0,84,0.00,,,0.00,Wunderground v.1.15,2013-07-04 01:12:00,
2013-07-03 21:13:00,76.0,70.8,30.21,WSW,253,5.0,6.0,84,0.00,,,0.00,Wunderground v.1.15,2013-07-04 01:13:00,
2013-07-03 21:14:00,76.0,70.8,30.21,SSE,157,6.0,10.0,84,0.00,,,0.00,Wunderground v.1.15,2013-07-04 01:14:00,
2013-07-03 21:17:00,76.0,70.8,30.21,South,171,2.0,11.0,84,0.00,,,0.00,Wunderground v.1.15,2013-07-04 01:17:00,
2013-07-03 21:20:00,75.9,71.1,30.20,SW,219,3.0,11.0,85,0.00,,,0.00,Wunderground v.1.15,2013-07-04 01:20:00,
2013-07-03 21:22:00,75.8,71.0,30.20,South,182,5.0,11.0,85,0.00,,,0.00,Wunderground v.1.15,2013-07-04 01:22:00,
2013-07-03 21:23:00,75.8,71.0,30.20,SSW,207,7.0,11.0,85,0.00,,,0.00,Wunderground v.1.15,2013-07-04 01:23:00,
2013-07-03 21:25:00,75.7,70.9,30.21,SW,222,1.0,9.0,85,0.00,,,0.00,Wunderground v.1.15,2013-07-04 01:25:00,
2013-07-03 21:28:00,75.6,70.8,30.21,SW,236,0.0,9.0,85,0.00,,,0.00,Wunderground v.1.15,2013-07-04 01:28:00,
2013-07-03 21:30:00,75.6,70.8,30.21,SSW,192,1.0,9.0,85,0.00,,,0.00,Wunderground v.1.15,2013-07-04 01:30:00,
2013-07-03 21:33:00,75.5,70.7,30.21,SW,217,1.0,3.0,85,0.00,,,0.00,Wunderground v.1.15,2013-07-04 01:33:00,
2013-07-03 21:34:00,75.5,70.7,30.21,SW,217,1.0,3.0,85,0.00,,,0.00,Wunderground v.1.15,2013-07-04 01:34:00,
2013-07-03 21:35:00,75.5,70.7,30.21,West,259,4.0,7.0,85,0.00,,,0.00,Wunderground v.1.15,2013-07-04 01:35:00,
2013-07-03 21:39:00,75.4,70.6,30.21,SSW,212,4.0,7.0,85,0.00,,,0.00,Wunderground v.1.15,2013-07-04 01:39:00,
2013-07-03 21:40:00,75.3,70.5,30.21,SW,223,3.0,7.0,85,0.00,,,0.00,Wunderground v.1.15,2013-07-04 01:40:00,
2013-07-03 21:41:00,75.3,70.5,30.21,South,184,2.0,8.0,85,0.00,,,0.00,Wunderground v.1.15,2013-07-04 01:41:00,
2013-07-03 21:44:00,75.2,70.4,30.21,SSW,200,4.0,8.0,85,0.00,,,0.00,Wunderground v.1.15,2013-07-04 01:44:00,
2013-07-03 21:45:00,75.1,70.3,30.22,SSW,192,5.0,8.0,85,0.00,,,0.00,Wunderground v.1.15,2013-07-04 01:45:00,
2013-07-03 21:46:00,75.1,70.3,30.21,SSW,202,4.0,8.0,85,0.00,,,0.00,Wunderground v.1.15,2013-07-04 01:46:00,
2013-07-03 21:50:00,75.1,70.3,30.21,WSW,254,5.0,8.0,85,0.00,,,0.00,Wunderground v.1.15,2013-07-04 01:50:00,
2013-07-03 21:51:00,75.1,70.3,30.21,SW,219,3.0,8.0,85,0.00,,,0.00,Wunderground v.1.15,2013-07-04 01:51:00,
2013-07-03 21:55:00,74.9,70.4,30.21,WSW,238,1.0,4.0,86,0.00,,,0.00,Wunderground v.1.15,2013-07-04 01:55:00,
2013-07-03 21:56:00,74.9,70.4,30.21,WSW,238,1.0,4.0,86,0.00,,,0.00,Wunderground v.1.15,2013-07-04 01:56:00,
2013-07-03 21:57:00,74.9,70.4,30.21,WSW,238,1.0,4.0,86,0.00,,,0.00,Wunderground v.1.15,2013-07-04 01:57:00,
2013-07-03 22:01:00,74.8,70.3,30.21,WSW,249,3.0,11.0,86,0.00,,,0.00,Wunderground v.1.15,2013-07-04 02:01:00,
2013-07-03 22:02:00,74.7,70.2,30.21,SSW,196,2.0,11.0,86,0.00,,,0.00,Wunderground v.1.15,2013-07-04 02:02:00,
2013-07-03 22:03:00,74.7,70.2,30.21,SW,223,1.0,3.0,86,0.00,,,0.00,Wunderground v.1.15,2013-07-04 02:03:00,
2013-07-03 22:07:00,74.6,70.1,30.21,SW,223,5.0,8.0,86,0.00,,,0.00,Wunderground v.1.15,2013-07-04 02:07:00,
2013-07-03 22:08:00,74.6,70.1,30.21,SSW,212,4.0,8.0,86,0.00,,,0.00,Wunderground v.1.15,2013-07-04 02:08:00,
2013-07-03 22:13:00,74.4,69.9,30.21,SW,232,5.0,8.0,86,0.00,,,0.00,Wunderground v.1.15,2013-07-04 02:13:00,
2013-07-03 22:14:00,74.4,69.9,30.21,SW,215,2.0,4.0,86,0.00,,,0.00,Wunderground v.1.15,2013-07-04 02:14:00,
2013-07-03 22:18:00,74.3,69.8,30.21,WSW,257,4.0,11.0,86,0.00,,,0.00,Wunderground v.1.15,2013-07-04 02:18:00,
2013-07-03 22:19:00,74.3,69.8,30.21,WSW,257,3.0,11.0,86,0.00,,,0.00,Wunderground v.1.15,2013-07-04 02:19:00,
2013-07-03 22:20:00,74.3,69.8,30.21,WSW,258,4.0,11.0,86,0.00,,,0.00,Wunderground v.1.15,2013-07-04 02:20:00,
2013-07-03 22:24:00,74.1,69.6,30.21,SSW,212,3.0,7.0,86,0.00,,,0.00,Wunderground v.1.15,2013-07-04 02:24:00,
2013-07-03 22:25:00,74.1,70.0,30.21,SW,228,2.0,7.0,87,0.00,,,0.00,Wunderground v.1.15,2013-07-04 02:25:00,
2013-07-03 22:30:00,74.0,69.9,30.21,South,190,2.0,11.0,87,0.00,,,0.00,Wunderground v.1.15,2013-07-04 02:30:00,
2013-07-03 22:31:00,74.0,69.9,30.21,SSW,194,1.0,11.0,87,0.00,,,0.00,Wunderground v.1.15,2013-07-04 02:31:00,
2013-07-03 22:36:00,73.9,69.8,30.21,SSW,213,2.0,6.0,87,0.00,,,0.00,Wunderground v.1.15,2013-07-04 02:36:00,
2013-07-03 22:37:00,73.8,69.7,30.21,SSW,193,2.0,6.0,87,0.00,,,0.00,Wunderground v.1.15,2013-07-04 02:37:00,
2013-07-03 22:41:00,73.8,69.7,30.21,SSW,192,4.0,8.0,87,0.00,,,0.00,Wunderground v.1.15,2013-07-04 02:41:00,
2013-07-03 22:42:00,73.7,69.6,30.21,SSW,198,3.0,8.0,87,0.00,,,0.00,Wunderground v.1.15,2013-07-04 02:42:00,
2013-07-03 22:47:00,73.6,69.5,30.21,WSW,255,4.0,6.0,87,0.00,,,0.00,Wunderground v.1.15,2013-07-04 02:47:00,
2013-07-03 22:48:00,73.6,69.5,30.21,SW,229,3.0,6.0,87,0.00,,,0.00,Wunderground v.1.15,2013-07-04 02:48:00,
2013-07-03 22:52:00,73.5,69.4,30.21,WSW,242,4.0,8.0,87,0.00,,,0.00,Wunderground v.1.15,2013-07-04 02:52:00,
2013-07-03 22:54:00,73.5,69.4,30.21,SSE,164,7.0,7.0,87,0.00,,,0.00,Wunderground v.1.15,2013-07-04 02:54:00,
2013-07-03 22:57:00,73.4,69.3,30.21,WSW,241,5.0,7.0,87,0.00,,,0.00,Wunderground v.1.15,2013-07-04 02:57:00,
2013-07-03 22:58:00,73.4,69.3,30.21,WSW,257,4.0,7.0,87,0.00,,,0.00,Wunderground v.1.15,2013-07-04 02:58:00,
2013-07-03 22:59:00,73.4,69.3,30.21,SW,233,5.0,7.0,87,0.00,,,0.00,Wunderground v.1.15,2013-07-04 02:59:00,
2013-07-03 23:03:00,73.3,69.5,30.21,WSW,239,3.0,11.0,88,0.00,,,0.00,Wunderground v.1.15,2013-07-04 03:03:00,
2013-07-03 23:04:00,73.3,69.5,30.21,SSW,194,4.0,5.0,88,0.00,,,0.00,Wunderground v.1.15,2013-07-04 03:04:00,
2013-07-03 23:08:00,73.2,69.4,30.21,WSW,246,4.0,8.0,88,0.00,,,0.00,Wunderground v.1.15,2013-07-04 03:08:00,
2013-07-03 23:10:00,73.2,69.4,30.21,SW,216,2.0,8.0,88,0.00,,,0.00,Wunderground v.1.15,2013-07-04 03:10:00,
2013-07-03 23:11:00,73.2,69.4,30.21,South,182,8.0,8.0,88,0.00,,,0.00,Wunderground v.1.15,2013-07-04 03:11:00,
2013-07-03 23:13:00,73.2,69.4,30.21,WSW,242,0.0,4.0,88,0.00,,,0.00,Wunderground v.1.15,2013-07-04 03:13:00,
2013-07-03 23:16:00,73.1,69.3,30.21,SSW,211,6.0,6.0,88,0.00,,,0.00,Wunderground v.1.15,2013-07-04 03:16:00,
2013-07-03 23:17:00,73.1,69.3,30.21,SSW,213,0.0,6.0,88,0.00,,,0.00,Wunderground v.1.15,2013-07-04 03:17:00,
2013-07-03 23:18:00,73.1,69.3,30.21,SW,236,6.0,6.0,88,0.00,,,0.00,Wunderground v.1.15,2013-07-04 03:18:00,
2013-07-03 23:21:00,73.1,69.3,30.21,SW,216,5.0,11.0,88,0.00,,,0.00,Wunderground v.1.15,2013-07-04 03:21:00,
2013-07-03 23:23:00,73.1,69.3,30.21,WSW,247,3.0,11.0,88,0.00,,,0.00,Wunderground v.1.15,2013-07-04 03:23:00,
2013-07-03 23:24:00,73.0,69.2,30.21,West,267,7.0,7.0,88,0.00,,,0.00,Wunderground v.1.15,2013-07-04 03:24:00,
2013-07-03 23:26:00,73.0,69.2,30.21,SW,219,6.0,10.0,88,0.00,,,0.00,Wunderground v.1.15,2013-07-04 03:26:00,
2013-07-03 23:28:00,73.0,69.2,30.21,SW,215,2.0,10.0,88,0.00,,,0.00,Wunderground v.1.15,2013-07-04 03:28:00,
2013-07-03 23:30:00,73.0,69.2,30.21,SSW,212,6.0,10.0,88,0.00,,,0.00,Wunderground v.1.15,2013-07-04 03:30:00,
2013-07-03 23:31:00,73.0,69.2,30.21,South,183,3.0,10.0,88,0.00,,,0.00,Wunderground v.1.15,2013-07-04 03:31:00,
2013-07-03 23:34:00,73.0,69.2,30.21,WSW,242,9.0,9.0,88,0.00,,,0.00,Wunderground v.1.15,2013-07-04 03:34:00,
2013-07-03 23:35:00,73.0,69.2,30.21,WSW,252,5.0,11.0,88,0.00,,,0.00,Wunderground v.1.15,2013-07-04 03:35:00,
2013-07-03 23:37:00,73.0,69.2,30.21,SSW,205,2.0,11.0,88,0.00,,,0.00,Wunderground v.1.15,2013-07-04 03:37:00,
2013-07-03 23:38:00,72.9,69.1,30.21,SW,232,0.0,7.0,88,0.00,,,0.00,Wunderground v.1.15,2013-07-04 03:38:00,
2013-07-03 23:39:00,72.9,69.1,30.21,SW,232,1.0,7.0,88,0.00,,,0.00,Wunderground v.1.15,2013-07-04 03:39:00,
2013-07-03 23:40:00,73.0,69.2,30.21,SSW,205,4.0,11.0,88,0.00,,,0.00,Wunderground v.1.15,2013-07-04 03:40:00,
2013-07-03 23:41:00,72.9,69.1,30.21,SW,229,3.0,6.0,88,0.00,,,0.00,Wunderground v.1.15,2013-07-04 03:41:00,
2013-07-03 23:42:00,72.9,69.1,30.21,SW,215,1.0,6.0,88,0.00,,,0.00,Wunderground v.1.15,2013-07-04 03:42:00,
2013-07-03 23:43:00,73.0,69.2,30.21,West,262,4.0,11.0,88,0.00,,,0.00,Wunderground v.1.15,2013-07-04 03:43:00,
2013-07-03 23:44:00,73.0,69.2,30.21,SW,215,3.0,9.0,88,0.00,,,0.00,Wunderground v.1.15,2013-07-04 03:44:00,
2013-07-03 23:45:00,73.0,69.2,30.21,SSW,202,4.0,9.0,88,0.00,,,0.00,Wunderground v.1.15,2013-07-04 03:45:00,
2013-07-03 23:49:00,73.0,69.2,30.21,SW,219,4.0,9.0,88,0.00,,,0.00,Wunderground v.1.15,2013-07-04 03:49:00,
2013-07-03 23:50:00,73.0,69.2,30.21,SSW,212,7.0,9.0,88,0.00,,,0.00,Wunderground v.1.15,2013-07-04 03:50:00,
2013-07-03 23:54:00,73.0,69.2,30.21,SSW,213,5.0,5.0,88,0.00,,,0.00,Wunderground v.1.15,2013-07-04 03:54:00,
2013-07-03 23:55:00,73.0,69.2,30.21,SSW,213,1.0,5.0,88,0.00,,,0.00,Wunderground v.1.15,2013-07-04 03:55:00,
2013-07-03 23:56:00,72.9,69.1,30.21,SSW,213,1.0,5.0,88,0.00,,,0.00,Wunderground v.1.15,2013-07-04 03:56:00,
2013-07-03 23:59:00,72.9,69.1,30.21,SSW,195,3.0,7.0,88,0.00,,,0.00,Wunderground v.1.15,2013-07-04 03:59:00,